Observation data for Amarillo 9 North Northeast on 05/25/2019      Previous  Date  Next       Current Mesonet Observations  Soil Data  Daily Summary Page  Observations in Plain Language
KAM2 250500Z 17012KT 18/15 A2993 RMK A01 T01770146  RH  082%=      5-min Rain = 0
KAM2 250501Z 17012KT 18/15 A2993 RMK A01 T01770147  RH  082%=      5-min Rain = 0
KAM2 250502Z 16011KT 18/15 A2994 RMK A01 T01770147  RH  082%=      5-min Rain = 0
KAM2 250503Z 16010KT 18/15 A2994 RMK A01 T01770147  RH  083%=      5-min Rain = 0
KAM2 250504Z 16010KT 18/15 A2994 RMK A01 T01760147  RH  083%=      5-min Rain = 0
KAM2 250505Z 16010KT 18/15 A2994 RMK A01 T01750147  RH  084%=      5-min Rain = 0
KAM2 250506Z 16010KT 17/15 A2994 RMK A01 T01740147  RH  084%=      5-min Rain = 0
KAM2 250507Z 16013KT 17/15 A2994 RMK A01 T01740147  RH  084%=      5-min Rain = 0
KAM2 250508Z 16010KT 17/15 A2994 RMK A01 T01730147  RH  084%=      5-min Rain = 0
KAM2 250509Z 17010KT 17/15 A2994 RMK A01 T01730146  RH  085%=      5-min Rain = 0
KAM2 250510Z 16010KT 17/15 A2994 RMK A01 T01720146  RH  085%=      5-min Rain = 0
KAM2 250511Z 17010KT 17/15 A2994 RMK A01 T01710146  RH  085%=      5-min Rain = 0
KAM2 250512Z 17011KT 17/15 A2994 RMK A01 T01710146  RH  085%=      5-min Rain = 0
KAM2 250513Z 17010KT 17/15 A2994 RMK A01 T01710146  RH  085%=      5-min Rain = 0
KAM2 250514Z 17011KT 17/15 A2994 RMK A01 T01710146  RH  085%=      5-min Rain = 0
KAM2 250515Z 17010KT 17/15 A2994 RMK A01 T01710146  RH  086%=      5-min Rain = 0
KAM2 250516Z 17011KT 17/15 A2995 RMK A01 T01700146  RH  086%=      5-min Rain = 0
KAM2 250517Z 17010KT 17/15 A2995 RMK A01 T01700146  RH  086%=      5-min Rain = 0
KAM2 250518Z 17012KT 17/15 A2995 RMK A01 T01700146  RH  086%=      5-min Rain = 0
KAM2 250519Z 17012KT 17/15 A2995 RMK A01 T01700145  RH  085%=      5-min Rain = 0
KAM2 250520Z 17010KT 17/15 A2995 RMK A01 T01710146  RH  085%=      5-min Rain = 0
KAM2 250521Z 16010KT 17/15 A2995 RMK A01 T01710146  RH  085%=      5-min Rain = 0
KAM2 250522Z 16012KT 17/15 A2994 RMK A01 T01710146  RH  085%=      5-min Rain = 0
KAM2 250523Z 16013KT 17/15 A2994 RMK A01 T01720146  RH  084%=      5-min Rain = 0
KAM2 250524Z 16013KT 17/15 A2994 RMK A01 T01740146  RH  084%=      5-min Rain = 0
KAM2 250525Z 16015KT 18/15 A2994 RMK A01 T01750146  RH  083%=      5-min Rain = 0
KAM2 250526Z 16013KT 18/15 A2995 RMK A01 T01760146  RH  082%=      5-min Rain = 0
KAM2 250527Z 16015KT 18/15 A2995 RMK A01 T01770146  RH  082%=      5-min Rain = 0
KAM2 250528Z 17012KT 18/15 A2994 RMK A01 T01770145  RH  082%=      5-min Rain = 0
KAM2 250529Z 17014KT 18/15 A2994 RMK A01 T01780146  RH  082%=      5-min Rain = 0
KAM2 250530Z 17014KT 18/15 A2995 RMK A01 T01780146  RH  082%=      5-min Rain = 0
KAM2 250531Z 17013KT 18/15 A2995 RMK A01 T01770146  RH  082%=      5-min Rain = 0
KAM2 250532Z 17013KT 18/15 A2995 RMK A01 T01770146  RH  082%=      5-min Rain = 0
KAM2 250533Z 16014KT 18/15 A2995 RMK A01 T01770146  RH  082%=      5-min Rain = 0
KAM2 250534Z 16012KT 18/15 A2995 RMK A01 T01770146  RH  082%=      5-min Rain = 0
KAM2 250535Z 17013KT 18/15 A2995 RMK A01 T01760146  RH  082%=      5-min Rain = 0
KAM2 250536Z 16014KT 18/15 A2995 RMK A01 T01760146  RH  083%=      5-min Rain = 0
KAM2 250537Z 16014KT 18/15 A2995 RMK A01 T01760146  RH  083%=      5-min Rain = 0
KAM2 250538Z 17013KT 18/15 A2995 RMK A01 T01750145  RH  082%=      5-min Rain = 0
KAM2 250539Z 17013KT 18/15 A2995 RMK A01 T01760145  RH  082%=      5-min Rain = 0
KAM2 250540Z 16013KT 18/15 A2995 RMK A01 T01750145  RH  082%=      5-min Rain = 0
KAM2 250541Z 17012KT 18/14 A2995 RMK A01 T01750144  RH  082%=      5-min Rain = 0
KAM2 250542Z 17012KT 18/14 A2995 RMK A01 T01750144  RH  082%=      5-min Rain = 0
KAM2 250543Z 17013KT 17/14 A2995 RMK A01 T01740143  RH  082%=      5-min Rain = 0
KAM2 250544Z 17013KT 18/14 A2995 RMK A01 T01750143  RH  081%=      5-min Rain = 0
KAM2 250545Z 17012KT 18/14 A2995 RMK A01 T01750143  RH  081%=      5-min Rain = 0
KAM2 250546Z 17012KT 18/14 A2995 RMK A01 T01750142  RH  081%=      5-min Rain = 0
KAM2 250547Z 17012KT 18/14 A2995 RMK A01 T01760143  RH  081%=      5-min Rain = 0
KAM2 250548Z 17013KT 18/14 A2995 RMK A01 T01750142  RH  081%=      5-min Rain = 0
KAM2 250549Z 17012KT 18/14 A2995 RMK A01 T01760141  RH  080%=      5-min Rain = 0
KAM2 250550Z 17012KT 18/14 A2995 RMK A01 T01760141  RH  080%=      5-min Rain = 0
KAM2 250551Z 17011KT 18/14 A2995 RMK A01 T01750140  RH  080%=      5-min Rain = 0
KAM2 250552Z 17011KT 18/14 A2994 RMK A01 T01750140  RH  080%=      5-min Rain = 0
KAM2 250553Z 17013KT 18/14 A2995 RMK A01 T01760139  RH  079%=      5-min Rain = 0
KAM2 250554Z 17012KT 18/14 A2995 RMK A01 T01760139  RH  079%=      5-min Rain = 0
KAM2 250555Z 17011KT 18/14 A2995 RMK A01 T01760139  RH  079%=      5-min Rain = 0
KAM2 250556Z 17012KT 18/14 A2995 RMK A01 T01760139  RH  079%=      5-min Rain = 0
KAM2 250557Z 17011KT 18/14 A2995 RMK A01 T01750139  RH  079%=      5-min Rain = 0
KAM2 250558Z 17012KT 18/14 A2995 RMK A01 T01750138  RH  079%=      5-min Rain = 0
KAM2 250559Z 17012KT 18/14 A2995 RMK A01 T01750137  RH  078%=      5-min Rain = 0
KAM2 250600Z 17013KT 18/14 A2995 RMK A01 T01750136  RH  078%=      5-min Rain = 0
KAM2 250601Z 17012KT 18/14 A2995 RMK A01 T01750135  RH  077%=      5-min Rain = 0
KAM2 250602Z 17011KT 18/14 A2995 RMK A01 T01750135  RH  077%=      5-min Rain = 0
KAM2 250603Z 17012KT 18/13 A2995 RMK A01 T01750134  RH  077%=      5-min Rain = 0
KAM2 250604Z 17012KT 17/13 A2995 RMK A01 T01740133  RH  077%=      5-min Rain = 0
KAM2 250605Z 17011KT 17/13 A2995 RMK A01 T01740132  RH  076%=      5-min Rain = 0
KAM2 250606Z 17012KT 17/13 A2995 RMK A01 T01740132  RH  076%=      5-min Rain = 0
KAM2 250607Z 17011KT 17/13 A2995 RMK A01 T01740132  RH  076%=      5-min Rain = 0
KAM2 250608Z 16012KT 17/13 A2995 RMK A01 T01740132  RH  076%=      5-min Rain = 0
KAM2 250609Z 17013KT 17/13 A2995 RMK A01 T01740130  RH  075%=      5-min Rain = 0
KAM2 250610Z 16012KT 17/13 A2995 RMK A01 T01740130  RH  075%=      5-min Rain = 0
KAM2 250611Z 16012KT 17/13 A2995 RMK A01 T01740130  RH  075%=      5-min Rain = 0
KAM2 250612Z 16012KT 17/13 A2995 RMK A01 T01740129  RH  075%=      5-min Rain = 0
KAM2 250613Z 16012KT 17/13 A2995 RMK A01 T01740129  RH  075%=      5-min Rain = 0
KAM2 250614Z 16012KT 17/13 A2995 RMK A01 T01740128  RH  075%=      5-min Rain = 0
KAM2 250615Z 17012KT 17/13 A2995 RMK A01 T01730128  RH  075%=      5-min Rain = 0
KAM2 250616Z 17011KT 17/13 A2995 RMK A01 T01730127  RH  074%=      5-min Rain = 0
KAM2 250617Z 16011KT 17/13 A2995 RMK A01 T01720127  RH  075%=      5-min Rain = 0
KAM2 250618Z 17013KT 17/13 A2995 RMK A01 T01720126  RH  074%=      5-min Rain = 0
KAM2 250619Z 17011KT 17/13 A2995 RMK A01 T01720126  RH  074%=      5-min Rain = 0
KAM2 250620Z 16014KT 17/13 A2995 RMK A01 T01720125  RH  074%=      5-min Rain = 0
KAM2 250621Z 17012KT 17/13 A2995 RMK A01 T01720125  RH  074%=      5-min Rain = 0
KAM2 250622Z 17014KT 17/13 A2995 RMK A01 T01720125  RH  074%=      5-min Rain = 0
KAM2 250623Z 17012KT 17/12 A2995 RMK A01 T01720124  RH  073%=      5-min Rain = 0
KAM2 250624Z 17010KT 17/12 A2995 RMK A01 T01720124  RH  073%=      5-min Rain = 0
KAM2 250625Z 17011KT 17/12 A2995 RMK A01 T01720124  RH  073%=      5-min Rain = 0
KAM2 250626Z 16013KT 17/12 A2995 RMK A01 T01720124  RH  073%=      5-min Rain = 0
KAM2 250627Z 16012KT 17/12 A2995 RMK A01 T01730124  RH  073%=      5-min Rain = 0
KAM2 250628Z 16011KT 17/12 A2995 RMK A01 T01720124  RH  074%=      5-min Rain = 0
KAM2 250629Z 16012KT 17/13 A2995 RMK A01 T01710125  RH  074%=      5-min Rain = 0
KAM2 250630Z 16012KT 17/13 A2995 RMK A01 T01700125  RH  075%=      5-min Rain = 0
KAM2 250631Z 16012KT 17/13 A2995 RMK A01 T01700126  RH  075%=      5-min Rain = 0
KAM2 250632Z 16012KT 17/13 A2996 RMK A01 T01700128  RH  077%=      5-min Rain = 0
KAM2 250633Z 16014KT 17/13 A2995 RMK A01 T01690131  RH  078%=      5-min Rain = 0
KAM2 250634Z 16013KT 17/13 A2996 RMK A01 T01690133  RH  079%=      5-min Rain = 0
KAM2 250635Z 16013KT 17/13 A2995 RMK A01 T01680134  RH  080%=      5-min Rain = 0
KAM2 250636Z 17013KT 17/14 A2995 RMK A01 T01670135  RH  081%=      5-min Rain = 0
KAM2 250637Z 16013KT 17/14 A2995 RMK A01 T01670136  RH  082%=      5-min Rain = 0
KAM2 250638Z 16013KT 17/14 A2995 RMK A01 T01660137  RH  083%=      5-min Rain = 0
KAM2 250639Z 16011KT 17/14 A2995 RMK A01 T01660138  RH  083%=      5-min Rain = 0
KAM2 250640Z 16011KT 17/14 A2995 RMK A01 T01650138  RH  084%=      5-min Rain = 0
KAM2 250641Z 17011KT 17/14 A2995 RMK A01 T01650138  RH  084%=      5-min Rain = 0
KAM2 250642Z 16011KT 16/14 A2995 RMK A01 T01640138  RH  084%=      5-min Rain = 0
KAM2 250643Z 17011KT 16/14 A2995 RMK A01 T01640139  RH  085%=      5-min Rain = 0
KAM2 250644Z 17011KT 16/14 A2995 RMK A01 T01640139  RH  085%=      5-min Rain = 0
KAM2 250645Z 17011KT 16/14 A2996 RMK A01 T01640139  RH  085%=      5-min Rain = 0
KAM2 250646Z 17010KT 16/14 A2996 RMK A01 T01640139  RH  085%=      5-min Rain = 0
KAM2 250647Z 17011KT 16/14 A2996 RMK A01 T01640140  RH  086%=      5-min Rain = 0
KAM2 250648Z 17010KT 16/14 A2996 RMK A01 T01640140  RH  086%=      5-min Rain = 0
KAM2 250649Z 17010KT 16/14 A2996 RMK A01 T01640139  RH  085%=      5-min Rain = 0
KAM2 250650Z 17011KT 16/14 A2996 RMK A01 T01640139  RH  085%=      5-min Rain = 0
KAM2 250651Z 17010KT 16/14 A2996 RMK A01 T01640139  RH  085%=      5-min Rain = 0
KAM2 250652Z 17010KT 16/14 A2996 RMK A01 T01640139  RH  085%=      5-min Rain = 0
KAM2 250653Z 17009KT 16/14 A2996 RMK A01 T01640139  RH  085%=      5-min Rain = 0
KAM2 250654Z 18012KT 16/14 A2996 RMK A01 T01640138  RH  085%=      5-min Rain = 0
KAM2 250655Z 18012KT 17/14 A2996 RMK A01 T01650137  RH  084%=      5-min Rain = 0
KAM2 250656Z 18011KT 17/14 A2996 RMK A01 T01660138  RH  083%=      5-min Rain = 0
KAM2 250657Z 17011KT 17/14 A2996 RMK A01 T01660137  RH  083%=      5-min Rain = 0
KAM2 250658Z 17010KT 17/14 A2996 RMK A01 T01660136  RH  082%=      5-min Rain = 0
KAM2 250659Z 17011KT 17/14 A2996 RMK A01 T01660136  RH  082%=      5-min Rain = 0
KAM2 250700Z 17013KT 17/14 A2996 RMK A01 T01670135  RH  082%=      5-min Rain = 0
KAM2 250701Z 17013KT 17/14 A2995 RMK A01 T01670135  RH  081%=      5-min Rain = 0
KAM2 250702Z 17013KT 17/14 A2995 RMK A01 T01690135  RH  080%=      5-min Rain = 0
KAM2 250703Z 16015KT 17/13 A2995 RMK A01 T01690134  RH  080%=      5-min Rain = 0
KAM2 250704Z 16013KT 17/13 A2995 RMK A01 T01690134  RH  080%=      5-min Rain = 0
KAM2 250705Z 16012G18KT 17/13 A2995 RMK A01 T01700134  RH  079%=      5-min Rain = 0
KAM2 250706Z 16013KT 17/13 A2995 RMK A01 T01700134  RH  080%=      5-min Rain = 0
KAM2 250707Z 16012KT 17/13 A2995 RMK A01 T01700134  RH  080%=      5-min Rain = 0
KAM2 250708Z 16014KT 17/13 A2995 RMK A01 T01700134  RH  079%=      5-min Rain = 0
KAM2 250709Z 17014KT 17/13 A2995 RMK A01 T01700134  RH  079%=      5-min Rain = 0
KAM2 250710Z 17013KT 17/13 A2995 RMK A01 T01710134  RH  079%=      5-min Rain = 0
KAM2 250711Z 17012KT 17/13 A2995 RMK A01 T01710134  RH  079%=      5-min Rain = 0
KAM2 250712Z 17012KT 17/14 A2995 RMK A01 T01710135  RH  079%=      5-min Rain = 0
KAM2 250713Z 17014KT 17/14 A2994 RMK A01 T01710135  RH  079%=      5-min Rain = 0
KAM2 250714Z 18014KT 17/13 A2994 RMK A01 T01710134  RH  079%=      5-min Rain = 0
KAM2 250715Z 18014KT 17/13 A2994 RMK A01 T01730134  RH  078%=      5-min Rain = 0
KAM2 250716Z 18014KT 17/14 A2994 RMK A01 T01730135  RH  078%=      5-min Rain = 0
KAM2 250717Z 17014KT 17/14 A2994 RMK A01 T01730135  RH  079%=      5-min Rain = 0
KAM2 250718Z 17013KT 17/14 A2994 RMK A01 T01730136  RH  079%=      5-min Rain = 0
KAM2 250719Z 16014KT 17/14 A2994 RMK A01 T01730136  RH  079%=      5-min Rain = 0
KAM2 250720Z 16015G20KT 17/14 A2994 RMK A01 T01740138  RH  080%=      5-min Rain = 0
KAM2 250721Z 16016KT 18/14 A2994 RMK A01 T01750141  RH  080%=      5-min Rain = 0
KAM2 250722Z 17015KT 18/14 A2994 RMK A01 T01770142  RH  080%=      5-min Rain = 0
KAM2 250723Z 18014KT 18/14 A2994 RMK A01 T01790144  RH  080%=      5-min Rain = 0
KAM2 250724Z 19014KT 18/14 A2994 RMK A01 T01790144  RH  080%=      5-min Rain = 0
KAM2 250725Z 19015KT 18/14 A2994 RMK A01 T01790144  RH  080%=      5-min Rain = 0
KAM2 250726Z 18017KT 18/14 A2994 RMK A01 T01790143  RH  079%=      5-min Rain = 0
KAM2 250727Z 17018KT 18/14 A2994 RMK A01 T01800144  RH  079%=      5-min Rain = 0
KAM2 250728Z 16015KT 18/14 A2994 RMK A01 T01810144  RH  079%=      5-min Rain = 0
KAM2 250729Z 16017G22KT 18/14 A2994 RMK A01 T01810144  RH  079%=      5-min Rain = 0
KAM2 250730Z 16018KT 18/14 A2994 RMK A01 T01810144  RH  079%=      5-min Rain = 0
KAM2 250731Z 16017KT 18/14 A2994 RMK A01 T01810143  RH  078%=      5-min Rain = 0
KAM2 250732Z 18014KT 18/14 A2994 RMK A01 T01810143  RH  078%=      5-min Rain = 0
KAM2 250733Z 18015KT 18/14 A2994 RMK A01 T01810144  RH  079%=      5-min Rain = 0
KAM2 250734Z 17016KT 18/15 A2994 RMK A01 T01800145  RH  080%=      5-min Rain = 0
KAM2 250735Z 16016G21KT 18/15 A2994 RMK A01 T01800147  RH  081%=      5-min Rain = 0
KAM2 250736Z 15018G23KT 18/15 A2994 RMK A01 T01800148  RH  081%=      5-min Rain = 0
KAM2 250737Z 16017G22KT 18/15 A2993 RMK A01 T01810149  RH  082%=      5-min Rain = 0
KAM2 250738Z 15021KT 18/15 A2993 RMK A01 T01820150  RH  082%=      5-min Rain = 0
KAM2 250739Z 15019G24KT 18/15 A2993 RMK A01 T01830150  RH  081%=      5-min Rain = 0
KAM2 250740Z 16018KT 18/15 A2993 RMK A01 T01840151  RH  081%=      5-min Rain = 0
KAM2 250741Z 16017G23KT 19/15 A2993 RMK A01 T01850152  RH  081%=      5-min Rain = 0
KAM2 250742Z 16016KT 19/15 A2993 RMK A01 T01850153  RH  082%=      5-min Rain = 0
KAM2 250743Z 16017KT 19/15 A2994 RMK A01 T01850152  RH  081%=      5-min Rain = 0
KAM2 250744Z 16016KT 19/15 A2994 RMK A01 T01860152  RH  081%=      5-min Rain = 0
KAM2 250745Z 16017KT 19/15 A2994 RMK A01 T01850153  RH  081%=      5-min Rain = 0
KAM2 250746Z 16016G21KT 19/15 A2994 RMK A01 T01850154  RH  082%=      5-min Rain = 0
KAM2 250747Z 16017KT 19/16 A2994 RMK A01 T01860155  RH  083%=      5-min Rain = 0
KAM2 250748Z 16019KT 19/16 A2994 RMK A01 T01860157  RH  083%=      5-min Rain = 0
KAM2 250749Z 16020KT 19/16 A2994 RMK A01 T01870157  RH  083%=      5-min Rain = 0
KAM2 250750Z 16019KT 19/16 A2994 RMK A01 T01880157  RH  083%=      5-min Rain = 0
KAM2 250751Z 16016KT 19/16 A2994 RMK A01 T01880158  RH  083%=      5-min Rain = 0
KAM2 250752Z 16017G22KT 19/16 A2994 RMK A01 T01880158  RH  083%=      5-min Rain = 0
KAM2 250753Z 16018KT 19/16 A2993 RMK A01 T01870157  RH  083%=      5-min Rain = 0
KAM2 250754Z 16014KT 19/16 A2994 RMK A01 T01870157  RH  082%=      5-min Rain = 0
KAM2 250755Z 16013KT 19/16 A2994 RMK A01 T01860157  RH  083%=      5-min Rain = 0
KAM2 250756Z 16014G21KT 19/16 A2993 RMK A01 T01850157  RH  084%=      5-min Rain = 0
KAM2 250757Z 16014KT 19/16 A2993 RMK A01 T01850157  RH  084%=      5-min Rain = 0
KAM2 250758Z 16017G22KT 18/16 A2993 RMK A01 T01840157  RH  084%=      5-min Rain = 0
KAM2 250759Z 16016KT 19/16 A2993 RMK A01 T01850158  RH  084%=      5-min Rain = 0
KAM2 250800Z 16015KT 19/16 A2994 RMK A01 T01850158  RH  084%=      5-min Rain = 0
KAM2 250801Z 16016KT 19/16 A2993 RMK A01 T01850158  RH  085%=      5-min Rain = 0
KAM2 250802Z 16017KT 18/16 A2993 RMK A01 T01840158  RH  085%=      5-min Rain = 0
KAM2 250803Z 16015KT 18/16 A2993 RMK A01 T01840158  RH  085%=      5-min Rain = 0
KAM2 250804Z 16018KT 18/16 A2993 RMK A01 T01840159  RH  085%=      5-min Rain = 0
KAM2 250805Z 16017KT 18/16 A2993 RMK A01 T01840159  RH  085%=      5-min Rain = 0
KAM2 250806Z 16017KT 18/16 A2993 RMK A01 T01840160  RH  086%=      5-min Rain = 0
KAM2 250807Z 16017KT 19/16 A2993 RMK A01 T01850161  RH  086%=      5-min Rain = 0
KAM2 250808Z 17017KT 19/16 A2993 RMK A01 T01850163  RH  087%=      5-min Rain = 0
KAM2 250809Z 16018KT 19/16 A2993 RMK A01 T01850164  RH  087%=      5-min Rain = 0
KAM2 250810Z 16019KT 19/17 A2993 RMK A01 T01860165  RH  087%=      5-min Rain = 0
KAM2 250811Z 16017KT 19/17 A2993 RMK A01 T01870166  RH  087%=      5-min Rain = 0
KAM2 250812Z 16017G22KT 19/17 A2993 RMK A01 T01870166  RH  087%=      5-min Rain = 0
KAM2 250813Z 16014KT 19/17 A2993 RMK A01 T01870166  RH  087%=      5-min Rain = 0
KAM2 250814Z 17016KT 19/17 A2993 RMK A01 T01870166  RH  088%=      5-min Rain = 0
KAM2 250815Z 16016KT 19/17 A2993 RMK A01 T01870166  RH  088%=      5-min Rain = 0
KAM2 250816Z 16016G21KT 19/17 A2993 RMK A01 T01870166  RH  088%=      5-min Rain = 0
KAM2 250817Z 16014KT 19/17 A2993 RMK A01 T01870166  RH  088%=      5-min Rain = 0
KAM2 250818Z 16015G20KT 19/17 A2993 RMK A01 T01860165  RH  088%=      5-min Rain = 0
KAM2 250819Z 16014KT 19/17 A2993 RMK A01 T01860165  RH  088%=      5-min Rain = 0
KAM2 250820Z 16013KT 19/17 A2993 RMK A01 T01860165  RH  088%=      5-min Rain = 0
KAM2 250821Z 16017KT 19/17 A2993 RMK A01 T01860165  RH  088%=      5-min Rain = 0
KAM2 250822Z 16015KT 19/17 A2993 RMK A01 T01850165  RH  088%=      5-min Rain = 0
KAM2 250823Z 17013KT 19/17 A2993 RMK A01 T01860165  RH  088%=      5-min Rain = 0
KAM2 250824Z 16014KT 19/17 A2993 RMK A01 T01850165  RH  088%=      5-min Rain = 0
KAM2 250825Z 16013KT 19/17 A2993 RMK A01 T01850165  RH  088%=      5-min Rain = 0
KAM2 250826Z 16014G19KT 18/17 A2993 RMK A01 T01840165  RH  089%=      5-min Rain = 0
KAM2 250827Z 16014KT 18/17 A2993 RMK A01 T01840165  RH  089%=      5-min Rain = 0
KAM2 250828Z 16015KT 18/17 A2993 RMK A01 T01840165  RH  089%=      5-min Rain = 0
KAM2 250829Z 17015KT 18/17 A2993 RMK A01 T01840165  RH  089%=      5-min Rain = 0
KAM2 250830Z 16014KT 18/17 A2993 RMK A01 T01840165  RH  089%=      5-min Rain = 0
KAM2 250831Z 16014KT 18/17 A2993 RMK A01 T01840165  RH  089%=      5-min Rain = 0
KAM2 250832Z 16014G19KT 18/17 A2993 RMK A01 T01840166  RH  089%=      5-min Rain = 0
KAM2 250833Z 16016KT 18/17 A2993 RMK A01 T01840166  RH  089%=      5-min Rain = 0
KAM2 250834Z 16015KT 18/17 A2993 RMK A01 T01840166  RH  089%=      5-min Rain = 0
KAM2 250835Z 15014KT 18/17 A2993 RMK A01 T01840166  RH  089%=      5-min Rain = 0
KAM2 250836Z 15014KT 18/17 A2993 RMK A01 T01840166  RH  089%=      5-min Rain = 0
KAM2 250837Z 16016KT 18/17 A2993 RMK A01 T01840166  RH  089%=      5-min Rain = 0
KAM2 250838Z 16015KT 18/17 A2993 RMK A01 T01840166  RH  089%=      5-min Rain = 0
KAM2 250839Z 16015KT 18/17 A2993 RMK A01 T01840166  RH  089%=      5-min Rain = 0
KAM2 250840Z 16013KT 18/17 A2993 RMK A01 T01840166  RH  089%=      5-min Rain = 0
KAM2 250841Z 16014KT 18/17 A2993 RMK A01 T01840166  RH  089%=      5-min Rain = 0
KAM2 250842Z 16015KT 18/17 A2993 RMK A01 T01840166  RH  089%=      5-min Rain = 0
KAM2 250843Z 16014KT 18/17 A2993 RMK A01 T01840166  RH  089%=      5-min Rain = 0
KAM2 250844Z 16013KT 18/17 A2993 RMK A01 T01830166  RH  089%=      5-min Rain = 0
KAM2 250845Z 16012KT 18/17 A2993 RMK A01 T01830166  RH  090%=      5-min Rain = 0
KAM2 250846Z 16014KT 18/17 A2993 RMK A01 T01830166  RH  090%=      5-min Rain = 0
KAM2 250847Z 16013KT 18/17 A2993 RMK A01 T01820166  RH  090%=      5-min Rain = 0
KAM2 250848Z 16013KT 18/17 A2993 RMK A01 T01820166  RH  090%=      5-min Rain = 0
KAM2 250849Z 16014KT 18/17 A2993 RMK A01 T01820166  RH  090%=      5-min Rain = 0
KAM2 250850Z 16012KT 18/17 A2993 RMK A01 T01820166  RH  091%=      5-min Rain = 0
KAM2 250851Z 16013KT 18/17 A2993 RMK A01 T01810166  RH  091%=      5-min Rain = 0
KAM2 250852Z 16014KT 18/17 A2993 RMK A01 T01810166  RH  091%=      5-min Rain = 0
KAM2 250853Z 17015KT 18/17 A2993 RMK A01 T01810166  RH  091%=      5-min Rain = 0
KAM2 250854Z 17014KT 18/17 A2993 RMK A01 T01810166  RH  091%=      5-min Rain = 0
KAM2 250855Z 17014KT 18/17 A2993 RMK A01 T01810166  RH  091%=      5-min Rain = 0
KAM2 250856Z 17013KT 18/17 A2993 RMK A01 T01810166  RH  091%=      5-min Rain = 0
KAM2 250857Z 17014KT 18/17 A2993 RMK A01 T01810166  RH  091%=      5-min Rain = 0
KAM2 250858Z 16013KT 18/17 A2993 RMK A01 T01810166  RH  091%=      5-min Rain = 0
KAM2 250859Z 16015KT 18/17 A2993 RMK A01 T01800166  RH  091%=      5-min Rain = 0
KAM2 250900Z 16013KT 18/17 A2993 RMK A01 T01800166  RH  092%=      5-min Rain = 0
KAM2 250901Z 16014KT 18/17 A2993 RMK A01 T01800166  RH  092%=      5-min Rain = 0
KAM2 250902Z 16015KT 18/17 A2993 RMK A01 T01800166  RH  092%=      5-min Rain = 0
KAM2 250903Z 16014KT 18/17 A2993 RMK A01 T01800167  RH  092%=      5-min Rain = 0
KAM2 250904Z 16014G19KT 18/17 A2993 RMK A01 T01800167  RH  092%=      5-min Rain = 0
KAM2 250905Z 17015KT 18/17 A2993 RMK A01 T01800167  RH  092%=      5-min Rain = 0
KAM2 250906Z 16014KT 18/17 A2993 RMK A01 T01800167  RH  092%=      5-min Rain = 0
KAM2 250907Z 17015KT 18/17 A2993 RMK A01 T01810167  RH  092%=      5-min Rain = 0
KAM2 250908Z 17015KT 18/17 A2993 RMK A01 T01810168  RH  092%=      5-min Rain = 0
KAM2 250909Z 17014KT 18/17 A2993 RMK A01 T01810168  RH  092%=      5-min Rain = 0
KAM2 250910Z 17015KT 18/17 A2993 RMK A01 T01810168  RH  092%=      5-min Rain = 0
KAM2 250911Z 17015KT 18/17 A2993 RMK A01 T01810168  RH  092%=      5-min Rain = 0
KAM2 250912Z 17016KT 18/17 A2993 RMK A01 T01800168  RH  092%=      5-min Rain = 0
KAM2 250913Z 17013KT 18/17 A2993 RMK A01 T01800168  RH  092%=      5-min Rain = 0
KAM2 250914Z 17015KT 18/17 A2993 RMK A01 T01800168  RH  092%=      5-min Rain = 0
KAM2 250915Z 17016KT 18/17 A2993 RMK A01 T01810168  RH  092%=      5-min Rain = 0
KAM2 250916Z 17017KT 18/17 A2993 RMK A01 T01800168  RH  093%=      5-min Rain = 0
KAM2 250917Z 17015G20KT 18/17 A2993 RMK A01 T01800168  RH  093%=      5-min Rain = 0
KAM2 250918Z 17016KT 18/17 A2993 RMK A01 T01810168  RH  093%=      5-min Rain = 0
KAM2 250919Z 17016KT 18/17 A2993 RMK A01 T01810169  RH  093%=      5-min Rain = 0
KAM2 250920Z 17018KT 18/17 A2993 RMK A01 T01810169  RH  093%=      5-min Rain = 0
KAM2 250921Z 17018KT 18/17 A2993 RMK A01 T01810169  RH  093%=      5-min Rain = 0
KAM2 250922Z 17015KT 18/17 A2993 RMK A01 T01800168  RH  093%=      5-min Rain = 0
KAM2 250923Z 17016G21KT 18/17 A2993 RMK A01 T01800168  RH  093%=      5-min Rain = 0
KAM2 250924Z 17017KT 18/17 A2993 RMK A01 T01810169  RH  093%=      5-min Rain = 0
KAM2 250925Z 17015KT 18/17 A2993 RMK A01 T01810169  RH  093%=      5-min Rain = 0
KAM2 250926Z 17015G20KT 18/17 A2993 RMK A01 T01810169  RH  093%=      5-min Rain = 0
KAM2 250927Z 17015G20KT 18/17 A2993 RMK A01 T01800169  RH  093%=      5-min Rain = 0
KAM2 250928Z 16014KT 18/17 A2993 RMK A01 T01800169  RH  093%=      5-min Rain = 0
KAM2 250929Z 16016KT 18/17 A2993 RMK A01 T01800169  RH  093%=      5-min Rain = 0
KAM2 250930Z 17015KT 18/17 A2993 RMK A01 T01800169  RH  093%=      5-min Rain = 0
KAM2 250931Z 17016KT 18/17 A2993 RMK A01 T01800169  RH  093%=      5-min Rain = 0
KAM2 250932Z 17017KT 18/17 A2993 RMK A01 T01800169  RH  093%=      5-min Rain = 0
KAM2 250933Z 17019KT 18/17 A2993 RMK A01 T01800170  RH  093%=      5-min Rain = 0
KAM2 250934Z 17015KT 18/17 A2993 RMK A01 T01800169  RH  093%=      5-min Rain = 0
KAM2 250935Z 17017KT 18/17 A2993 RMK A01 T01800169  RH  093%=      5-min Rain = 0
KAM2 250936Z 17018KT 18/17 A2993 RMK A01 T01800170  RH  094%=      5-min Rain = 0
KAM2 250937Z 17016KT 18/17 A2993 RMK A01 T01800170  RH  094%=      5-min Rain = 0
KAM2 250938Z 17014KT 18/17 A2993 RMK A01 T01800169  RH  093%=      5-min Rain = 0
KAM2 250939Z 17017KT 18/17 A2993 RMK A01 T01800169  RH  094%=      5-min Rain = 0
KAM2 250940Z 17017KT 18/17 A2993 RMK A01 T01800170  RH  094%=      5-min Rain = 0
KAM2 250941Z 17018KT 18/17 A2993 RMK A01 T01800170  RH  094%=      5-min Rain = 0
KAM2 250942Z 17014G19KT 18/17 A2993 RMK A01 T01800170  RH  094%=      5-min Rain = 0
KAM2 250943Z 17014KT 18/17 A2993 RMK A01 T01800169  RH  093%=      5-min Rain = 0
KAM2 250944Z 17016KT 18/17 A2993 RMK A01 T01800170  RH  094%=      5-min Rain = 0
KAM2 250945Z 17015KT 18/17 A2993 RMK A01 T01800170  RH  094%=      5-min Rain = 0
KAM2 250946Z 17016G21KT 18/17 A2993 RMK A01 T01790169  RH  094%=      5-min Rain = 0
KAM2 250947Z 17015KT 18/17 A2993 RMK A01 T01790170  RH  094%=      5-min Rain = 0
KAM2 250948Z 17016KT 18/17 A2993 RMK A01 T01790169  RH  094%=      5-min Rain = 0
KAM2 250949Z 17015KT 18/17 A2993 RMK A01 T01790169  RH  094%=      5-min Rain = 0
KAM2 250950Z 17014KT 18/17 A2993 RMK A01 T01790169  RH  094%=      5-min Rain = 0
KAM2 250951Z 17014KT 18/17 A2993 RMK A01 T01790170  RH  094%=      5-min Rain = 0
KAM2 250952Z 17015KT 18/17 A2993 RMK A01 T01790170  RH  094%=      5-min Rain = 0
KAM2 250953Z 17013KT 18/17 A2993 RMK A01 T01790170  RH  094%=      5-min Rain = 0
KAM2 250954Z 17016KT 18/17 A2993 RMK A01 T01790170  RH  094%=      5-min Rain = 0
KAM2 250955Z 17015KT 18/17 A2993 RMK A01 T01790170  RH  094%=      5-min Rain = 0
KAM2 250956Z 17015KT 18/17 A2993 RMK A01 T01790170  RH  094%=      5-min Rain = 0
KAM2 250957Z 17019KT 18/17 A2993 RMK A01 T01790170  RH  094%=      5-min Rain = 0
KAM2 250958Z 17016KT 18/17 A2993 RMK A01 T01800170  RH  094%=      5-min Rain = 0
KAM2 250959Z 17017KT 18/17 A2993 RMK A01 T01800171  RH  094%=      5-min Rain = 0
KAM2 251000Z 17015KT 18/17 A2993 RMK A01 T01800170  RH  094%=      5-min Rain = 0
KAM2 251001Z 17016KT 18/17 A2993 RMK A01 T01800170  RH  094%=      5-min Rain = 0
KAM2 251002Z 17014KT 18/17 A2994 RMK A01 T01800170  RH  094%=      5-min Rain = 0
KAM2 251003Z 17016KT 18/17 A2994 RMK A01 T01800170  RH  094%=      5-min Rain = 0
KAM2 251004Z 17016KT 18/17 A2994 RMK A01 T01800171  RH  094%=      5-min Rain = 0
KAM2 251005Z 17013G18KT 18/17 A2994 RMK A01 T01800171  RH  094%=      5-min Rain = 0
KAM2 251006Z 17015KT 18/17 A2994 RMK A01 T01800170  RH  094%=      5-min Rain = 0
KAM2 251007Z 17016KT 18/17 A2994 RMK A01 T01800170  RH  094%=      5-min Rain = 0
KAM2 251008Z 17016KT 18/17 A2994 RMK A01 T01800171  RH  094%=      5-min Rain = 0
KAM2 251009Z 17017KT 18/17 A2994 RMK A01 T01800171  RH  094%=      5-min Rain = 0
KAM2 251010Z 17013KT 18/17 A2994 RMK A01 T01800171  RH  094%=      5-min Rain = 0
KAM2 251011Z 17015KT 18/17 A2994 RMK A01 T01800171  RH  094%=      5-min Rain = 0
KAM2 251012Z 17015KT 18/17 A2994 RMK A01 T01800171  RH  094%=      5-min Rain = 0
KAM2 251013Z 17015G20KT 18/17 A2994 RMK A01 T01800171  RH  094%=      5-min Rain = 0
KAM2 251014Z 17015KT 18/17 A2994 RMK A01 T01800171  RH  094%=      5-min Rain = 0
KAM2 251015Z 17015KT 18/17 A2994 RMK A01 T01800171  RH  094%=      5-min Rain = 0
KAM2 251016Z 17014KT 18/17 A2994 RMK A01 T01800171  RH  094%=      5-min Rain = 0
KAM2 251017Z 17015KT 18/17 A2994 RMK A01 T01800171  RH  094%=      5-min Rain = 0
KAM2 251018Z 17016KT 18/17 A2994 RMK A01 T01800171  RH  094%=      5-min Rain = 0
KAM2 251019Z 17015KT 18/17 A2994 RMK A01 T01800171  RH  094%=      5-min Rain = 0
KAM2 251020Z 17014KT 18/17 A2994 RMK A01 T01800171  RH  094%=      5-min Rain = 0
KAM2 251021Z 17014KT 18/17 A2994 RMK A01 T01800171  RH  094%=      5-min Rain = 0
KAM2 251022Z 17013KT 18/17 A2994 RMK A01 T01800171  RH  094%=      5-min Rain = 0
KAM2 251023Z 17015KT 18/17 A2994 RMK A01 T01800171  RH  094%=      5-min Rain = 0
KAM2 251024Z 17016KT 18/17 A2994 RMK A01 T01800171  RH  095%=      5-min Rain = 0
KAM2 251025Z 17016KT 18/17 A2994 RMK A01 T01800171  RH  094%=      5-min Rain = 0
KAM2 251026Z 17017KT 18/17 A2994 RMK A01 T01800171  RH  094%=      5-min Rain = 0
KAM2 251027Z 17015KT 18/17 A2994 RMK A01 T01810172  RH  094%=      5-min Rain = 0
KAM2 251028Z 17017G22KT 18/17 A2994 RMK A01 T01800171  RH  094%=      5-min Rain = 0
KAM2 251029Z 17016KT 18/17 A2994 RMK A01 T01810172  RH  094%=      5-min Rain = 0
KAM2 251030Z 17013KT 18/17 A2994 RMK A01 T01810172  RH  094%=      5-min Rain = 0
KAM2 251031Z 17017KT 18/17 A2994 RMK A01 T01810172  RH  094%=      5-min Rain = 0
KAM2 251032Z 17015G21KT 18/17 A2994 RMK A01 T01810172  RH  094%=      5-min Rain = 0
KAM2 251033Z 17016KT 18/17 A2994 RMK A01 T01810172  RH  094%=      5-min Rain = 0
KAM2 251034Z 17016KT 18/17 A2994 RMK A01 T01810172  RH  094%=      5-min Rain = 0
KAM2 251035Z 17016KT 18/17 A2994 RMK A01 T01810172  RH  094%=      5-min Rain = 0
KAM2 251036Z 17015KT 18/17 A2995 RMK A01 T01810172  RH  094%=      5-min Rain = 0
KAM2 251037Z 17016KT 18/17 A2995 RMK A01 T01810172  RH  094%=      5-min Rain = 0
KAM2 251038Z 17017KT 18/17 A2995 RMK A01 T01810172  RH  094%=      5-min Rain = 0
KAM2 251039Z 17016KT 18/17 A2995 RMK A01 T01810172  RH  094%=      5-min Rain = 0
KAM2 251040Z 17016KT 18/17 A2995 RMK A01 T01820172  RH  094%=      5-min Rain = 0
KAM2 251041Z 17015KT 18/17 A2995 RMK A01 T01820172  RH  094%=      5-min Rain = 0
KAM2 251042Z 17014KT 18/17 A2995 RMK A01 T01810172  RH  094%=      5-min Rain = 0
KAM2 251043Z 17016KT 18/17 A2995 RMK A01 T01810172  RH  094%=      5-min Rain = 0
KAM2 251044Z 17016KT 18/17 A2995 RMK A01 T01820172  RH  094%=      5-min Rain = 0
KAM2 251045Z 17017KT 18/17 A2995 RMK A01 T01810172  RH  094%=      5-min Rain = 0
KAM2 251046Z 17018KT 18/17 A2995 RMK A01 T01810172  RH  094%=      5-min Rain = 0
KAM2 251047Z 17017KT 18/17 A2995 RMK A01 T01810172  RH  094%=      5-min Rain = 0
KAM2 251048Z 17018KT 18/17 A2995 RMK A01 T01820172  RH  094%=      5-min Rain = 0
KAM2 251049Z 17016KT 18/17 A2995 RMK A01 T01820172  RH  094%=      5-min Rain = 0
KAM2 251050Z 17016KT 18/17 A2995 RMK A01 T01830173  RH  094%=      5-min Rain = 0
KAM2 251051Z 17017KT 18/17 A2995 RMK A01 T01820172  RH  094%=      5-min Rain = 0
KAM2 251052Z 17015KT 18/17 A2995 RMK A01 T01820173  RH  094%=      5-min Rain = 0
KAM2 251053Z 17015KT 18/17 A2995 RMK A01 T01820173  RH  094%=      5-min Rain = 0
KAM2 251054Z 17017KT 18/17 A2995 RMK A01 T01820173  RH  094%=      5-min Rain = 0
KAM2 251055Z 17017KT 18/17 A2995 RMK A01 T01820173  RH  094%=      5-min Rain = 0
KAM2 251056Z 16016G21KT 18/17 A2995 RMK A01 T01820173  RH  094%=      5-min Rain = 0
KAM2 251057Z 17016KT 18/17 A2995 RMK A01 T01820173  RH  094%=      5-min Rain = 0
KAM2 251058Z 17017KT 18/17 A2995 RMK A01 T01820173  RH  094%=      5-min Rain = 0
KAM2 251059Z 17015KT 18/17 A2995 RMK A01 T01820172  RH  094%=      5-min Rain = 0
KAM2 251100Z 17016KT 18/17 A2995 RMK A01 T01820173  RH  094%=      5-min Rain = 0
KAM2 251101Z 17017KT 18/17 A2995 RMK A01 T01820173  RH  094%=      5-min Rain = 0
KAM2 251102Z 17016KT 18/17 A2995 RMK A01 T01820173  RH  094%=      5-min Rain = 0
KAM2 251103Z 16015KT 18/17 A2995 RMK A01 T01820173  RH  094%=      5-min Rain = 0
KAM2 251104Z 17015KT 18/17 A2995 RMK A01 T01830173  RH  094%=      5-min Rain = 0
KAM2 251105Z 17017KT 18/17 A2995 RMK A01 T01820173  RH  094%=      5-min Rain = 0
KAM2 251106Z 17016KT 18/17 A2995 RMK A01 T01820172  RH  094%=      5-min Rain = 0
KAM2 251107Z 17017KT 18/17 A2995 RMK A01 T01830173  RH  094%=      5-min Rain = 0
KAM2 251108Z 17013KT 18/17 A2995 RMK A01 T01830173  RH  094%=      5-min Rain = 0
KAM2 251109Z 17016KT 18/17 A2995 RMK A01 T01830173  RH  094%=      5-min Rain = 0
KAM2 251110Z 17015KT 18/17 A2995 RMK A01 T01830173  RH  094%=      5-min Rain = 0
KAM2 251111Z 17015KT 18/17 A2995 RMK A01 T01830173  RH  094%=      5-min Rain = 0
KAM2 251112Z 17014KT 18/17 A2995 RMK A01 T01820173  RH  094%=      5-min Rain = 0
KAM2 251113Z 17016KT 18/17 A2995 RMK A01 T01820173  RH  094%=      5-min Rain = 0
KAM2 251114Z 17016KT 18/17 A2995 RMK A01 T01830173  RH  094%=      5-min Rain = 0
KAM2 251115Z 17016KT 18/17 A2995 RMK A01 T01820173  RH  094%=      5-min Rain = 0
KAM2 251116Z 17013KT 18/17 A2995 RMK A01 T01820173  RH  094%=      5-min Rain = 0
KAM2 251117Z 17014KT 18/17 A2995 RMK A01 T01820173  RH  094%=      5-min Rain = 0
KAM2 251118Z 17013KT 18/17 A2995 RMK A01 T01820173  RH  094%=      5-min Rain = 0
KAM2 251119Z 17015KT 18/17 A2995 RMK A01 T01820173  RH  094%=      5-min Rain = 0
KAM2 251120Z 17015KT 18/17 A2995 RMK A01 T01820173  RH  094%=      5-min Rain = 0
KAM2 251121Z 17013KT 18/17 A2995 RMK A01 T01820173  RH  094%=      5-min Rain = 0
KAM2 251122Z 17015KT 18/17 A2995 RMK A01 T01820173  RH  094%=      5-min Rain = 0
KAM2 251123Z 17014KT 18/17 A2995 RMK A01 T01820173  RH  094%=      5-min Rain = 0
KAM2 251124Z 17015KT 18/17 A2995 RMK A01 T01830174  RH  094%=      5-min Rain = 0
KAM2 251125Z 17015KT 18/17 A2995 RMK A01 T01830173  RH  094%=      5-min Rain = 0
KAM2 251126Z 17015KT 18/17 A2995 RMK A01 T01830174  RH  094%=      5-min Rain = 0
KAM2 251127Z 17015KT 18/17 A2995 RMK A01 T01840174  RH  094%=      5-min Rain = 0
KAM2 251128Z 17016KT 18/17 A2996 RMK A01 T01840174  RH  094%=      5-min Rain = 0
KAM2 251129Z 17016KT 18/17 A2996 RMK A01 T01840174  RH  094%=      5-min Rain = 0
KAM2 251130Z 17017KT 18/17 A2996 RMK A01 T01840174  RH  094%=      5-min Rain = 0
KAM2 251131Z 17018G23KT 19/17 A2996 RMK A01 T01850174  RH  094%=      5-min Rain = 0
KAM2 251132Z 17017KT 19/18 A2996 RMK A01 T01850175  RH  093%=      5-min Rain = 0
KAM2 251133Z 17021KT 19/18 A2996 RMK A01 T01860175  RH  093%=      5-min Rain = 0
KAM2 251134Z 17017G22KT 19/18 A2996 RMK A01 T01860175  RH  093%=      5-min Rain = 0
KAM2 251135Z 17020G25KT 19/18 A2996 RMK A01 T01860175  RH  093%=      5-min Rain = 0
KAM2 251136Z 18019G25KT 19/18 A2996 RMK A01 T01860175  RH  093%=      5-min Rain = 0
KAM2 251137Z 17019G24KT 19/18 A2996 RMK A01 T01860175  RH  093%=      5-min Rain = 0
KAM2 251138Z 17021G26KT 19/18 A2996 RMK A01 T01860175  RH  093%=      5-min Rain = 0
KAM2 251139Z 17020G25KT 19/18 A2995 RMK A01 T01870176  RH  093%=      5-min Rain = 0
KAM2 251140Z 17019KT 19/18 A2996 RMK A01 T01860175  RH  093%=      5-min Rain = 0
KAM2 251141Z 17018KT 19/18 A2996 RMK A01 T01870176  RH  093%=      5-min Rain = 0
KAM2 251142Z 17018G23KT 19/18 A2996 RMK A01 T01860176  RH  093%=      5-min Rain = 0
KAM2 251143Z 17022KT 19/18 A2996 RMK A01 T01870176  RH  093%=      5-min Rain = 0
KAM2 251144Z 17019KT 19/18 A2996 RMK A01 T01870176  RH  093%=      5-min Rain = 0
KAM2 251145Z 17020G26KT 19/18 A2996 RMK A01 T01860176  RH  093%=      5-min Rain = 0
KAM2 251146Z 17022KT 19/18 A2996 RMK A01 T01870176  RH  093%=      5-min Rain = 0
KAM2 251147Z 17020KT 19/18 A2996 RMK A01 T01870176  RH  093%=      5-min Rain = 0
KAM2 251148Z 18018G25KT 19/18 A2996 RMK A01 T01860176  RH  093%=      5-min Rain = 0
KAM2 251149Z 17018G24KT 19/18 A2996 RMK A01 T01870176  RH  094%=      5-min Rain = 0
KAM2 251150Z 17019G25KT 19/18 A2996 RMK A01 T01860176  RH  094%=      5-min Rain = 0
KAM2 251151Z 17020G26KT 19/18 A2996 RMK A01 T01860176  RH  094%=      5-min Rain = 0
KAM2 251152Z 17019KT 19/18 A2996 RMK A01 T01860176  RH  094%=      5-min Rain = 0
KAM2 251153Z 17022G28KT 19/18 A2996 RMK A01 T01860176  RH  094%=      5-min Rain = 0
KAM2 251154Z 17020KT 19/18 A2996 RMK A01 T01860176  RH  094%=      5-min Rain = 0
KAM2 251155Z 18021KT 19/18 A2996 RMK A01 T01860176  RH  094%=      5-min Rain = 0
KAM2 251156Z 17020G25KT 19/18 A2996 RMK A01 T01860176  RH  094%=      5-min Rain = 0
KAM2 251157Z 18019KT 19/18 A2996 RMK A01 T01860176  RH  094%=      5-min Rain = 0
KAM2 251158Z 17016G21KT 19/18 A2996 RMK A01 T01860176  RH  094%=      5-min Rain = 0
KAM2 251159Z 17016KT 19/18 A2996 RMK A01 T01860177  RH  094%=      5-min Rain = 0
KAM2 251200Z 17017G22KT 19/18 A2996 RMK A01 T01860176  RH  094%=      5-min Rain = 0
KAM2 251201Z 17019KT 19/18 A2996 RMK A01 T01860177  RH  094%=      5-min Rain = 0
KAM2 251202Z 18022KT 19/18 A2996 RMK A01 T01860176  RH  094%=      5-min Rain = 0
KAM2 251203Z 18017KT 19/18 A2997 RMK A01 T01860177  RH  094%=      5-min Rain = 0
KAM2 251204Z 17019KT 19/18 A2997 RMK A01 T01860177  RH  094%=      5-min Rain = 0
KAM2 251205Z 17018KT 19/18 A2997 RMK A01 T01860177  RH  094%=      5-min Rain = 0
KAM2 251206Z 18018G23KT 19/18 A2997 RMK A01 T01860177  RH  094%=      5-min Rain = 0
KAM2 251207Z 17018KT 19/18 A2997 RMK A01 T01860177  RH  094%=      5-min Rain = 0
KAM2 251208Z 17016KT 19/18 A2997 RMK A01 T01860177  RH  094%=      5-min Rain = 0
KAM2 251209Z 17016KT 19/18 A2997 RMK A01 T01860177  RH  094%=      5-min Rain = 0
KAM2 251210Z 17018KT 19/18 A2997 RMK A01 T01860177  RH  095%=      5-min Rain = 0
KAM2 251211Z 17020KT 19/18 A2997 RMK A01 T01860177  RH  095%=      5-min Rain = 0
KAM2 251212Z 17019KT 19/18 A2997 RMK A01 T01860177  RH  095%=      5-min Rain = 0
KAM2 251213Z 17018KT 19/18 A2997 RMK A01 T01860177  RH  095%=      5-min Rain = 0
KAM2 251214Z 17019KT 19/18 A2997 RMK A01 T01860177  RH  095%=      5-min Rain = 0
KAM2 251215Z 17019G24KT 19/18 A2997 RMK A01 T01860177  RH  095%=      5-min Rain = 0
KAM2 251216Z 18019KT 19/18 A2997 RMK A01 T01860177  RH  095%=      5-min Rain = 0
KAM2 251217Z 17021KT 19/18 A2997 RMK A01 T01860177  RH  095%=      5-min Rain = 0
KAM2 251218Z 17018KT 19/18 A2997 RMK A01 T01860177  RH  095%=      5-min Rain = 0
KAM2 251219Z 17014KT 19/18 A2997 RMK A01 T01860177  RH  095%=      5-min Rain = 0
KAM2 251220Z 17013KT 19/18 A2997 RMK A01 T01860177  RH  095%=      5-min Rain = 0
KAM2 251221Z 18016KT 19/18 A2997 RMK A01 T01860178  RH  095%=      5-min Rain = 0
KAM2 251222Z 17016KT 19/18 A2997 RMK A01 T01860178  RH  095%=      5-min Rain = 0
KAM2 251223Z 17018KT 19/18 A2997 RMK A01 T01860178  RH  095%=      5-min Rain = 0
KAM2 251224Z 17019KT 19/18 A2997 RMK A01 T01860178  RH  095%=      5-min Rain = 0
KAM2 251225Z 17016KT 19/18 A2998 RMK A01 T01870178  RH  095%=      5-min Rain = 0
KAM2 251226Z 17017KT 19/18 A2997 RMK A01 T01860178  RH  095%=      5-min Rain = 0
KAM2 251227Z 17017KT 19/18 A2997 RMK A01 T01870178  RH  095%=      5-min Rain = 0
KAM2 251228Z 17018KT 19/18 A2998 RMK A01 T01870179  RH  095%=      5-min Rain = 0
KAM2 251229Z 17016G22KT 19/18 A2998 RMK A01 T01870178  RH  095%=      5-min Rain = 0
KAM2 251230Z 17015KT 19/18 A2998 RMK A01 T01870178  RH  095%=      5-min Rain = 0
KAM2 251231Z 17015KT 19/18 A2997 RMK A01 T01870178  RH  095%=      5-min Rain = 0
KAM2 251232Z 17018KT 19/18 A2998 RMK A01 T01870178  RH  095%=      5-min Rain = 0
KAM2 251233Z 17016KT 19/18 A2998 RMK A01 T01870179  RH  095%=      5-min Rain = 0
KAM2 251234Z 17016KT 19/18 A2998 RMK A01 T01880179  RH  095%=      5-min Rain = 0
KAM2 251235Z 17014KT 19/18 A2998 RMK A01 T01870179  RH  095%=      5-min Rain = 0
KAM2 251236Z 17014KT 19/18 A2998 RMK A01 T01880179  RH  095%=      5-min Rain = 0
KAM2 251237Z 17014KT 19/18 A2998 RMK A01 T01880179  RH  095%=      5-min Rain = 0
KAM2 251238Z 17012KT 19/18 A2998 RMK A01 T01880180  RH  095%=      5-min Rain = 0
KAM2 251239Z 17015KT 19/18 A2998 RMK A01 T01880179  RH  094%=      5-min Rain = 0
KAM2 251240Z 17014KT 19/18 A2998 RMK A01 T01890180  RH  094%=      5-min Rain = 0
KAM2 251241Z 17014KT 19/18 A2998 RMK A01 T01890180  RH  094%=      5-min Rain = 0
KAM2 251242Z 17013KT 19/18 A2998 RMK A01 T01890180  RH  094%=      5-min Rain = 0
KAM2 251243Z 18013KT 19/18 A2998 RMK A01 T01890180  RH  094%=      5-min Rain = 0
KAM2 251244Z 18012KT 19/18 A2998 RMK A01 T01890180  RH  094%=      5-min Rain = 0
KAM2 251245Z 17011KT 19/18 A2998 RMK A01 T01890180  RH  094%=      5-min Rain = 0
KAM2 251246Z 16011KT 19/18 A2998 RMK A01 T01890180  RH  094%=      5-min Rain = 0
KAM2 251247Z 16013KT 19/18 A2998 RMK A01 T01890180  RH  094%=      5-min Rain = 0
KAM2 251248Z 17014KT 19/18 A2998 RMK A01 T01900180  RH  094%=      5-min Rain = 0
KAM2 251249Z 16012KT 19/18 A2998 RMK A01 T01900180  RH  094%=      5-min Rain = 0
KAM2 251250Z 17012KT 19/18 A2998 RMK A01 T01900180  RH  094%=      5-min Rain = 0
KAM2 251251Z 17010KT 19/18 A2999 RMK A01 T01900181  RH  094%=      5-min Rain = 0
KAM2 251252Z 16008KT 19/18 A2999 RMK A01 T01900181  RH  094%=      5-min Rain = 0
KAM2 251253Z 18009KT 19/18 A2999 RMK A01 T01900181  RH  094%=      5-min Rain = 0
KAM2 251254Z 17013KT 19/18 A2999 RMK A01 T01900181  RH  094%=      5-min Rain = 0
KAM2 251255Z 17009KT 19/18 A2999 RMK A01 T01900181  RH  094%=      5-min Rain = 0
KAM2 251256Z 16011KT 19/18 A2999 RMK A01 T01900181  RH  094%=      5-min Rain = 0
KAM2 251257Z 17010KT 19/18 A2999 RMK A01 T01900181  RH  094%=      5-min Rain = 0
KAM2 251258Z 16012KT 19/18 A2999 RMK A01 T01910181  RH  094%=      5-min Rain = 0
KAM2 251259Z 16012KT 19/18 A2999 RMK A01 T01910181  RH  094%=      5-min Rain = 0
KAM2 251300Z 17012KT 19/18 A2999 RMK A01 T01910181  RH  094%=      5-min Rain = 0
KAM2 251301Z 17012KT 19/18 A2999 RMK A01 T01910181  RH  094%=      5-min Rain = 0
KAM2 251302Z 17010KT 19/18 A2999 RMK A01 T01910181  RH  094%=      5-min Rain = 0
KAM2 251303Z 17008KT 19/18 A2999 RMK A01 T01910181  RH  094%=      5-min Rain = 0
KAM2 251304Z 17009KT 19/18 A2999 RMK A01 T01910182  RH  094%=      5-min Rain = 0
KAM2 251305Z 17010KT 19/18 A2999 RMK A01 T01910182  RH  094%=      5-min Rain = 0
KAM2 251306Z 17009KT 19/18 A2999 RMK A01 T01910181  RH  094%=      5-min Rain = 0
KAM2 251307Z 17010KT 19/18 A2999 RMK A01 T01910182  RH  094%=      5-min Rain = 0
KAM2 251308Z 17008KT 19/18 A2999 RMK A01 T01920182  RH  094%=      5-min Rain = 0
KAM2 251309Z 17010KT 19/18 A2999 RMK A01 T01920182  RH  094%=      5-min Rain = 0
KAM2 251310Z 17010KT 19/18 A2999 RMK A01 T01920182  RH  094%=      5-min Rain = 0
KAM2 251311Z 17008G13KT 19/18 A2999 RMK A01 T01920182  RH  094%=      5-min Rain = 0
KAM2 251312Z 17013KT 19/18 A2999 RMK A01 T01920182  RH  094%=      5-min Rain = 0
KAM2 251313Z 17012KT 19/18 A2999 RMK A01 T01920182  RH  094%=      5-min Rain = 0
KAM2 251314Z 17011KT 19/18 A2999 RMK A01 T01920182  RH  094%=      5-min Rain = 0
KAM2 251315Z 17009KT 19/18 A2999 RMK A01 T01920182  RH  094%=      5-min Rain = 0
KAM2 251316Z 17008KT 19/18 A30 RMK A01 T01920182  RH  094%=      5-min Rain = 0
KAM2 251317Z 17008KT 19/18 A30 RMK A01 T01920182  RH  094%=      5-min Rain = 0
KAM2 251318Z 18009KT 19/18 A30 RMK A01 T01920183  RH  094%=      5-min Rain = 0
KAM2 251319Z 17010KT 19/18 A30 RMK A01 T01920183  RH  094%=      5-min Rain = 0
KAM2 251320Z 18010KT 19/18 A30 RMK A01 T01930183  RH  094%=      5-min Rain = 0
KAM2 251321Z 17009KT 19/18 A30 RMK A01 T01920182  RH  094%=      5-min Rain = 0
KAM2 251322Z 17009KT 19/18 A30 RMK A01 T01930183  RH  094%=      5-min Rain = 0
KAM2 251323Z 17008KT 19/18 A30 RMK A01 T01930183  RH  094%=      5-min Rain = 0
KAM2 251324Z 17007G12KT 19/18 A30 RMK A01 T01930183  RH  094%=      5-min Rain = 0
KAM2 251325Z 16009KT 19/18 A30 RMK A01 T01930183  RH  094%=      5-min Rain = 0
KAM2 251326Z 16008KT 19/18 A30 RMK A01 T01930183  RH  094%=      5-min Rain = 0
KAM2 251327Z 17008KT 19/18 A30 RMK A01 T01930183  RH  094%=      5-min Rain = 0
KAM2 251328Z 17008KT 19/18 A30 RMK A01 T01930183  RH  094%=      5-min Rain = 0
KAM2 251329Z 18009KT 19/18 A30 RMK A01 T01940183  RH  093%=      5-min Rain = 0
KAM2 251330Z 18009KT 19/18 A30 RMK A01 T01940183  RH  093%=      5-min Rain = 0
KAM2 251331Z 17010KT 19/18 A30 RMK A01 T01940183  RH  093%=      5-min Rain = 0
KAM2 251332Z 18008KT 20/18 A30 RMK A01 T01950183  RH  093%=      5-min Rain = 0
KAM2 251333Z 17008KT 20/18 A30 RMK A01 T01950183  RH  093%=      5-min Rain = 0
KAM2 251334Z 17009KT 20/18 A30 RMK A01 T01950183  RH  093%=      5-min Rain = 0
KAM2 251335Z 16008KT 20/18 A30 RMK A01 T01950183  RH  093%=      5-min Rain = 0
KAM2 251336Z 17011KT 20/18 A30 RMK A01 T01950184  RH  093%=      5-min Rain = 0
KAM2 251337Z 17011KT 20/18 A30 RMK A01 T01960184  RH  093%=      5-min Rain = 0
KAM2 251338Z 17010KT 20/18 A30 RMK A01 T01960184  RH  093%=      5-min Rain = 0
KAM2 251339Z 16012G18KT 20/18 A30 RMK A01 T01960184  RH  092%=      5-min Rain = 0
KAM2 251340Z 17012KT 20/18 A30 RMK A01 T01970184  RH  092%=      5-min Rain = 0
KAM2 251341Z 17010KT 20/18 A30 RMK A01 T01970184  RH  092%=      5-min Rain = 0
KAM2 251342Z 17010KT 20/18 A30 RMK A01 T01970184  RH  092%=      5-min Rain = 0
KAM2 251343Z 17010KT 20/18 A30 RMK A01 T01970184  RH  092%=      5-min Rain = 0
KAM2 251344Z 17011KT 20/18 A30 RMK A01 T01970184  RH  092%=      5-min Rain = 0
KAM2 251345Z 17011KT 20/19 A30 RMK A01 T01980185  RH  092%=      5-min Rain = 0
KAM2 251346Z 17008KT 20/19 A30 RMK A01 T01980185  RH  092%=      5-min Rain = 0
KAM2 251347Z 17010KT 20/19 A30 RMK A01 T01980185  RH  092%=      5-min Rain = 0
KAM2 251348Z 18010KT 20/19 A30 RMK A01 T01990185  RH  092%=      5-min Rain = 0
KAM2 251349Z 17010KT 20/19 A30 RMK A01 T01990185  RH  092%=      5-min Rain = 0
KAM2 251350Z 17012KT 20/19 A30 RMK A01 T01990185  RH  092%=      5-min Rain = 0
KAM2 251351Z 18013KT 20/19 A30 RMK A01 T01990185  RH  091%=      5-min Rain = 0
KAM2 251352Z 18011KT 20/19 A30 RMK A01 T01990185  RH  091%=      5-min Rain = 0
KAM2 251353Z 18011KT 20/19 A30 RMK A01 T01990185  RH  091%=      5-min Rain = 0
KAM2 251354Z 18009KT 20/19 A30 RMK A01 T01990185  RH  091%=      5-min Rain = 0
KAM2 251355Z 18013KT 20/19 A30 RMK A01 T02000185  RH  091%=      5-min Rain = 0
KAM2 251356Z 19012KT 20/19 A30 RMK A01 T02000185  RH  091%=      5-min Rain = 0
KAM2 251357Z 18010KT 20/18 A30 RMK A01 T02000184  RH  091%=      5-min Rain = 0
KAM2 251358Z 17010KT 20/19 A30 RMK A01 T02000185  RH  091%=      5-min Rain = 0
KAM2 251359Z 17013KT 20/19 A30 RMK A01 T02000185  RH  091%=      5-min Rain = 0
KAM2 251400Z 17012KT 20/19 A30 RMK A01 T02010185  RH  090%=      5-min Rain = 0
KAM2 251401Z 17010KT 20/19 A30 RMK A01 T02010185  RH  090%=      5-min Rain = 0
KAM2 251402Z 18010KT 20/19 A30 RMK A01 T02020186  RH  090%=      5-min Rain = 0
KAM2 251403Z 18010KT 20/19 A30 RMK A01 T02020186  RH  090%=      5-min Rain = 0
KAM2 251404Z 18008KT 20/19 A30 RMK A01 T02030186  RH  090%=      5-min Rain = 0
KAM2 251405Z 17011KT 20/19 A30 RMK A01 T02030186  RH  090%=      5-min Rain = 0
KAM2 251406Z 18012KT 20/19 A30 RMK A01 T02030186  RH  090%=      5-min Rain = 0
KAM2 251407Z 17011KT 20/19 A30 RMK A01 T02030186  RH  090%=      5-min Rain = 0
KAM2 251408Z 17010KT 20/19 A30 RMK A01 T02040186  RH  090%=      5-min Rain = 0
KAM2 251409Z 18011KT 20/19 A30 RMK A01 T02040187  RH  090%=      5-min Rain = 0
KAM2 251410Z 17010KT 21/19 A30 RMK A01 T02050187  RH  090%=      5-min Rain = 0
KAM2 251411Z 18012KT 21/19 A30 RMK A01 T02050187  RH  089%=      5-min Rain = 0
KAM2 251412Z 17011KT 21/19 A30 RMK A01 T02050187  RH  089%=      5-min Rain = 0
KAM2 251413Z 18011KT 21/19 A30 RMK A01 T02050187  RH  089%=      5-min Rain = 0
KAM2 251414Z 16013KT 21/19 A30 RMK A01 T02060187  RH  089%=      5-min Rain = 0
KAM2 251415Z 17012KT 21/19 A30 RMK A01 T02060187  RH  089%=      5-min Rain = 0
KAM2 251416Z 18013G19KT 21/19 A30 RMK A01 T02070187  RH  089%=      5-min Rain = 0
KAM2 251417Z 17015KT 21/19 A30 RMK A01 T02070187  RH  088%=      5-min Rain = 0
KAM2 251418Z 18014KT 21/19 A30 RMK A01 T02070186  RH  088%=      5-min Rain = 0
KAM2 251419Z 17013KT 21/19 A30 RMK A01 T02070187  RH  088%=      5-min Rain = 0
KAM2 251420Z 18013KT 21/19 A30 RMK A01 T02070186  RH  088%=      5-min Rain = 0
KAM2 251421Z 18011KT 21/19 A30 RMK A01 T02070187  RH  088%=      5-min Rain = 0
KAM2 251422Z 18012KT 21/19 A30 RMK A01 T02070188  RH  089%=      5-min Rain = 0
KAM2 251423Z 17012KT 21/19 A30 RMK A01 T02070187  RH  088%=      5-min Rain = 0
KAM2 251424Z 16013G20KT 21/19 A30 RMK A01 T02070188  RH  089%=      5-min Rain = 0
KAM2 251425Z 17014G19KT 21/19 A30 RMK A01 T02080187  RH  088%=      5-min Rain = 0
KAM2 251426Z 18011KT 21/19 A30 RMK A01 T02080188  RH  088%=      5-min Rain = 0
KAM2 251427Z 17010KT 21/19 A30 RMK A01 T02080189  RH  089%=      5-min Rain = 0
KAM2 251428Z 17013KT 21/19 A30 RMK A01 T02080188  RH  089%=      5-min Rain = 0
KAM2 251429Z 17013KT 21/19 A30 RMK A01 T02080188  RH  088%=      5-min Rain = 0
KAM2 251430Z 17015KT 21/19 A30 RMK A01 T02080187  RH  088%=      5-min Rain = 0
KAM2 251431Z 18013KT 21/19 A30 RMK A01 T02080187  RH  088%=      5-min Rain = 0
KAM2 251432Z 17013KT 21/19 A3001 RMK A01 T02080187  RH  088%=      5-min Rain = 0
KAM2 251433Z 17013KT 21/19 A3001 RMK A01 T02080187  RH  088%=      5-min Rain = 0
KAM2 251434Z 18012KT 21/19 A30 RMK A01 T02090187  RH  087%=      5-min Rain = 0
KAM2 251435Z 18012KT 21/19 A3001 RMK A01 T02090187  RH  087%=      5-min Rain = 0
KAM2 251436Z 18010KT 21/19 A3001 RMK A01 T02100188  RH  087%=      5-min Rain = 0
KAM2 251437Z 18013KT 21/19 A3001 RMK A01 T02110189  RH  087%=      5-min Rain = 0
KAM2 251438Z 17010KT 21/19 A3001 RMK A01 T02110189  RH  087%=      5-min Rain = 0
KAM2 251439Z 17011KT 21/19 A3001 RMK A01 T02120189  RH  087%=      5-min Rain = 0
KAM2 251440Z 17013KT 21/19 A3001 RMK A01 T02140190  RH  086%=      5-min Rain = 0
KAM2 251441Z 17014KT 21/19 A3001 RMK A01 T02140188  RH  085%=      5-min Rain = 0
KAM2 251442Z 17013KT 21/19 A3001 RMK A01 T02140188  RH  085%=      5-min Rain = 0
KAM2 251443Z 18012KT 22/19 A3001 RMK A01 T02150188  RH  085%=      5-min Rain = 0
KAM2 251444Z 17011KT 22/19 A3001 RMK A01 T02160190  RH  086%=      5-min Rain = 0
KAM2 251445Z 17011KT 22/19 A3001 RMK A01 T02180192  RH  085%=      5-min Rain = 0
KAM2 251446Z 18013G21KT 22/19 A3001 RMK A01 T02190192  RH  085%=      5-min Rain = 0
KAM2 251447Z 18016G23KT 22/19 A3001 RMK A01 T02200190  RH  083%=      5-min Rain = 0
KAM2 251448Z 18015KT 22/19 A3001 RMK A01 T02200189  RH  083%=      5-min Rain = 0
KAM2 251449Z 17016KT 22/19 A3001 RMK A01 T02190188  RH  082%=      5-min Rain = 0
KAM2 251450Z 18012KT 22/19 A3001 RMK A01 T02190188  RH  083%=      5-min Rain = 0
KAM2 251451Z 19011KT 22/19 A3001 RMK A01 T02190190  RH  084%=      5-min Rain = 0
KAM2 251452Z 18012KT 22/19 A3001 RMK A01 T02200191  RH  083%=      5-min Rain = 0
KAM2 251453Z 18014KT 22/19 A3001 RMK A01 T02210189  RH  082%=      5-min Rain = 0
KAM2 251454Z 18015KT 22/19 A3001 RMK A01 T02200188  RH  082%=      5-min Rain = 0
KAM2 251455Z 18012KT 22/19 A3001 RMK A01 T02190187  RH  082%=      5-min Rain = 0
KAM2 251456Z 18011KT 22/19 A3001 RMK A01 T02190188  RH  083%=      5-min Rain = 0
KAM2 251457Z 18013KT 22/19 A3001 RMK A01 T02190187  RH  082%=      5-min Rain = 0
KAM2 251458Z 19014KT 22/19 A3001 RMK A01 T02200187  RH  082%=      5-min Rain = 0
KAM2 251459Z 19013KT 22/19 A3001 RMK A01 T02200187  RH  081%=      5-min Rain = 0
KAM2 251500Z 18011G16KT 22/19 A3001 RMK A01 T02190187  RH  082%=      5-min Rain = 0
KAM2 251501Z 18010KT 22/19 A3001 RMK A01 T02190188  RH  083%=      5-min Rain = 0
KAM2 251502Z 19008KT 22/19 A3001 RMK A01 T02190190  RH  083%=      5-min Rain = 0
KAM2 251503Z 18012KT 22/19 A3001 RMK A01 T02200190  RH  083%=      5-min Rain = 0
KAM2 251504Z 18013KT 22/19 A3001 RMK A01 T02200186  RH  081%=      5-min Rain = 0
KAM2 251505Z 18013KT 22/19 A3001 RMK A01 T02190186  RH  081%=      5-min Rain = 0
KAM2 251506Z 18013KT 22/19 A3001 RMK A01 T02190187  RH  082%=      5-min Rain = 0
KAM2 251507Z 18012KT 22/19 A3001 RMK A01 T02200187  RH  082%=      5-min Rain = 0
KAM2 251508Z 19010KT 22/19 A3001 RMK A01 T02200188  RH  082%=      5-min Rain = 0
KAM2 251509Z 18010KT 22/19 A3001 RMK A01 T02210187  RH  081%=      5-min Rain = 0
KAM2 251510Z 18010KT 22/19 A3001 RMK A01 T02210187  RH  081%=      5-min Rain = 0
KAM2 251511Z 19012KT 22/19 A3001 RMK A01 T02210187  RH  081%=      5-min Rain = 0
KAM2 251512Z 20012KT 22/19 A3001 RMK A01 T02220186  RH  080%=      5-min Rain = 0
KAM2 251513Z 18010KT 23/19 A3001 RMK A01 T02250191  RH  081%=      5-min Rain = 0
KAM2 251514Z 18012KT 23/19 A3001 RMK A01 T02290193  RH  080%=      5-min Rain = 0
KAM2 251515Z 18013KT 23/19 A3001 RMK A01 T02300190  RH  078%=      5-min Rain = 0
KAM2 251516Z 18013KT 23/19 A3001 RMK A01 T02300189  RH  078%=      5-min Rain = 0
KAM2 251517Z 19012KT 23/19 A3001 RMK A01 T02290190  RH  079%=      5-min Rain = 0
KAM2 251518Z 20013KT 23/19 A3001 RMK A01 T02280189  RH  079%=      5-min Rain = 0
KAM2 251519Z 19012KT 23/19 A3001 RMK A01 T02280188  RH  078%=      5-min Rain = 0
KAM2 251520Z 18011KT 23/19 A3001 RMK A01 T02280190  RH  079%=      5-min Rain = 0
KAM2 251521Z 19013KT 23/19 A3001 RMK A01 T02290189  RH  078%=      5-min Rain = 0
KAM2 251522Z 18012KT 23/19 A3001 RMK A01 T02280189  RH  078%=      5-min Rain = 0
KAM2 251523Z 18010KT 23/19 A3001 RMK A01 T02280191  RH  079%=      5-min Rain = 0
KAM2 251524Z 18013KT 23/19 A3001 RMK A01 T02290189  RH  078%=      5-min Rain = 0
KAM2 251525Z 18011KT 23/19 A3001 RMK A01 T02300190  RH  078%=      5-min Rain = 0
KAM2 251526Z 18012G18KT 23/19 A3001 RMK A01 T02300190  RH  078%=      5-min Rain = 0
KAM2 251527Z 19014KT 23/19 A3001 RMK A01 T02290190  RH  078%=      5-min Rain = 0
KAM2 251528Z 18010G15KT 23/19 A3002 RMK A01 T02290187  RH  077%=      5-min Rain = 0
KAM2 251529Z 20009KT 23/19 A3002 RMK A01 T02280188  RH  078%=      5-min Rain = 0
KAM2 251530Z 19012KT 23/19 A3002 RMK A01 T02290189  RH  078%=      5-min Rain = 0
KAM2 251531Z 19010KT 23/19 A3002 RMK A01 T02300190  RH  078%=      5-min Rain = 0
KAM2 251532Z 19009G14KT 23/19 A3002 RMK A01 T02310191  RH  078%=      5-min Rain = 0
KAM2 251533Z 20014KT 23/19 A3002 RMK A01 T02320186  RH  075%=      5-min Rain = 0
KAM2 251534Z 18011G16KT 23/19 A3002 RMK A01 T02300187  RH  077%=      5-min Rain = 0
KAM2 251535Z 19014KT 23/19 A3002 RMK A01 T02300188  RH  077%=      5-min Rain = 0
KAM2 251536Z 19014KT 23/19 A3002 RMK A01 T02310187  RH  076%=      5-min Rain = 0
KAM2 251537Z 19015KT 23/19 A3002 RMK A01 T02300187  RH  076%=      5-min Rain = 0
KAM2 251538Z 19018KT 23/18 A3002 RMK A01 T02290184  RH  076%=      5-min Rain = 0
KAM2 251539Z 20017KT 23/18 A3002 RMK A01 T02270184  RH  077%=      5-min Rain = 0
KAM2 251540Z 20016KT 23/18 A3001 RMK A01 T02260184  RH  077%=      5-min Rain = 0
KAM2 251541Z 19013KT 23/18 A3002 RMK A01 T02260183  RH  077%=      5-min Rain = 0
KAM2 251542Z 20011KT 23/19 A3002 RMK A01 T02270185  RH  077%=      5-min Rain = 0
KAM2 251543Z 20012KT 23/19 A3002 RMK A01 T02280185  RH  076%=      5-min Rain = 0
KAM2 251544Z 19010KT 23/19 A3002 RMK A01 T02290187  RH  077%=      5-min Rain = 0
KAM2 251545Z 19009KT 23/19 A3002 RMK A01 T02310191  RH  078%=      5-min Rain = 0
KAM2 251546Z 20012KT 23/19 A3002 RMK A01 T02320189  RH  077%=      5-min Rain = 0
KAM2 251547Z 19011KT 23/19 A3002 RMK A01 T02320186  RH  075%=      5-min Rain = 0
KAM2 251548Z 19009KT 23/19 A3002 RMK A01 T02320185  RH  075%=      5-min Rain = 0
KAM2 251549Z 17010KT 23/19 A3001 RMK A01 T02330189  RH  076%=      5-min Rain = 0
KAM2 251550Z 18012KT 24/19 A3001 RMK A01 T02370190  RH  075%=      5-min Rain = 0
KAM2 251551Z 18013KT 24/19 A3001 RMK A01 T02390189  RH  074%=      5-min Rain = 0
KAM2 251552Z 19012KT 24/19 A3002 RMK A01 T02390190  RH  074%=      5-min Rain = 0
KAM2 251553Z 18012KT 24/19 A3002 RMK A01 T02380189  RH  074%=      5-min Rain = 0
KAM2 251554Z 18013KT 24/19 A3002 RMK A01 T02380188  RH  073%=      5-min Rain = 0
KAM2 251555Z 17012KT 24/19 A3002 RMK A01 T02360186  RH  074%=      5-min Rain = 0
KAM2 251556Z 19013KT 23/19 A3002 RMK A01 T02340187  RH  075%=      5-min Rain = 0
KAM2 251557Z 20013KT 23/19 A3002 RMK A01 T02320187  RH  076%=      5-min Rain = 0
KAM2 251558Z 20012KT 23/19 A3001 RMK A01 T02310186  RH  076%=      5-min Rain = 0
KAM2 251559Z 19010KT 23/19 A3001 RMK A01 T02290187  RH  077%=      5-min Rain = 0
KAM2 251600Z 18013KT 23/19 A3001 RMK A01 T02290188  RH  077%=      5-min Rain = 0
KAM2 251601Z 19009KT 23/19 A3001 RMK A01 T02300187  RH  077%=      5-min Rain = 0
KAM2 251602Z 20010KT 23/19 A3002 RMK A01 T02300188  RH  077%=      5-min Rain = 0
KAM2 251603Z 20012KT 23/19 A3001 RMK A01 T02310187  RH  076%=      5-min Rain = 0
KAM2 251604Z 19011KT 23/19 A3002 RMK A01 T02310187  RH  076%=      5-min Rain = 0
KAM2 251605Z 17008KT 23/19 A3002 RMK A01 T02310190  RH  077%=      5-min Rain = 0
KAM2 251606Z 19011G16KT 23/19 A3002 RMK A01 T02320188  RH  076%=      5-min Rain = 0
KAM2 251607Z 18014KT 23/18 A3001 RMK A01 T02310184  RH  075%=      5-min Rain = 0
KAM2 251608Z 19012KT 23/18 A3001 RMK A01 T02300184  RH  075%=      5-min Rain = 0
KAM2 251609Z 19011KT 23/18 A3001 RMK A01 T02290184  RH  076%=      5-min Rain = 0
KAM2 251610Z 18013KT 23/19 A3001 RMK A01 T02290186  RH  077%=      5-min Rain = 0
KAM2 251611Z 18012KT 23/19 A3001 RMK A01 T02290186  RH  077%=      5-min Rain = 0
KAM2 251612Z 19012KT 23/19 A3001 RMK A01 T02290185  RH  076%=      5-min Rain = 0
KAM2 251613Z 18013KT 23/19 A3001 RMK A01 T02300187  RH  077%=      5-min Rain = 0
KAM2 251614Z 18010KT 23/19 A3001 RMK A01 T02290186  RH  077%=      5-min Rain = 0
KAM2 251615Z 18007KT 23/19 A3001 RMK A01 T02280187  RH  077%=      5-min Rain = 0
KAM2 251616Z 18011KT 23/19 A3001 RMK A01 T02280187  RH  078%=      5-min Rain = 0
KAM2 251617Z 18010KT 23/19 A3001 RMK A01 T02280186  RH  077%=      5-min Rain = 0
KAM2 251618Z 18009KT 23/19 A3001 RMK A01 T02280186  RH  077%=      5-min Rain = 0
KAM2 251619Z 18009KT 23/19 A3001 RMK A01 T02280186  RH  077%=      5-min Rain = 0
KAM2 251620Z 19008KT 23/19 A3001 RMK A01 T02290187  RH  077%=      5-min Rain = 0
KAM2 251621Z 19013KT 23/19 A3001 RMK A01 T02320186  RH  075%=      5-min Rain = 0
KAM2 251622Z 18011KT 23/19 A3001 RMK A01 T02340188  RH  075%=      5-min Rain = 0
KAM2 251623Z 18011KT 24/19 A3001 RMK A01 T02350187  RH  074%=      5-min Rain = 0
KAM2 251624Z 19010KT 24/19 A3001 RMK A01 T02360188  RH  075%=      5-min Rain = 0
KAM2 251625Z 18011KT 24/19 A30 RMK A01 T02370189  RH  075%=      5-min Rain = 0
KAM2 251626Z 18011KT 24/19 A30 RMK A01 T02380187  RH  073%=      5-min Rain = 0
KAM2 251627Z 17011KT 24/19 A30 RMK A01 T02390189  RH  074%=      5-min Rain = 0
KAM2 251628Z 17011KT 24/19 A30 RMK A01 T02410190  RH  073%=      5-min Rain = 0
KAM2 251629Z 17013KT 24/19 A30 RMK A01 T02410189  RH  073%=      5-min Rain = 0
KAM2 251630Z 18010KT 24/19 A30 RMK A01 T02400190  RH  073%=      5-min Rain = 0
KAM2 251631Z 17010KT 24/19 A30 RMK A01 T02390191  RH  074%=      5-min Rain = 0
KAM2 251632Z 18010KT 24/19 A30 RMK A01 T02390189  RH  073%=      5-min Rain = 0
KAM2 251633Z 18010KT 24/19 A30 RMK A01 T02400191  RH  074%=      5-min Rain = 0
KAM2 251634Z 18010KT 24/19 A3001 RMK A01 T02410189  RH  073%=      5-min Rain = 0
KAM2 251635Z 18010KT 24/19 A3001 RMK A01 T02420188  RH  072%=      5-min Rain = 0
KAM2 251636Z 18012KT 24/19 A3001 RMK A01 T02430188  RH  071%=      5-min Rain = 0
KAM2 251637Z 17012KT 24/19 A3001 RMK A01 T02440187  RH  071%=      5-min Rain = 0
KAM2 251638Z 18011KT 24/19 A3001 RMK A01 T02430187  RH  071%=      5-min Rain = 0
KAM2 251639Z 18013KT 24/19 A3001 RMK A01 T02410188  RH  072%=      5-min Rain = 0
KAM2 251640Z 19012KT 24/19 A3001 RMK A01 T02390185  RH  072%=      5-min Rain = 0
KAM2 251641Z 18011KT 24/19 A3001 RMK A01 T02370185  RH  073%=      5-min Rain = 0
KAM2 251642Z 18010KT 24/19 A30 RMK A01 T02370185  RH  073%=      5-min Rain = 0
KAM2 251643Z 17008KT 24/19 A3001 RMK A01 T02370189  RH  074%=      5-min Rain = 0
KAM2 251644Z 17010KT 24/19 A3001 RMK A01 T02400191  RH  074%=      5-min Rain = 0
KAM2 251645Z 18008KT 24/19 A3001 RMK A01 T02430191  RH  073%=      5-min Rain = 0
KAM2 251646Z 19010KT 25/19 A3001 RMK A01 T02450191  RH  072%=      5-min Rain = 0
KAM2 251647Z 19012KT 25/19 A3001 RMK A01 T02450189  RH  071%=      5-min Rain = 0
KAM2 251648Z 18011KT 25/19 A3001 RMK A01 T02450189  RH  071%=      5-min Rain = 0
KAM2 251649Z 18011KT 24/19 A3001 RMK A01 T02430189  RH  072%=      5-min Rain = 0
KAM2 251650Z 18008KT 24/19 A3001 RMK A01 T02420190  RH  072%=      5-min Rain = 0
KAM2 251651Z 18007KT 24/19 A30 RMK A01 T02430191  RH  073%=      5-min Rain = 0
KAM2 251652Z 17009KT 25/19 A30 RMK A01 T02450190  RH  072%=      5-min Rain = 0
KAM2 251653Z 17009KT 25/19 A30 RMK A01 T02460190  RH  071%=      5-min Rain = 0
KAM2 251654Z 17008KT 25/19 A3001 RMK A01 T02460191  RH  071%=      5-min Rain = 0
KAM2 251655Z 18007KT 25/19 A3001 RMK A01 T02460191  RH  071%=      5-min Rain = 0
KAM2 251656Z 18007KT 25/19 A3001 RMK A01 T02450190  RH  072%=      5-min Rain = 0
KAM2 251657Z 17006KT 24/19 A3001 RMK A01 T02440191  RH  072%=      5-min Rain = 0
KAM2 251658Z 18006KT 24/19 A3001 RMK A01 T02440191  RH  072%=      5-min Rain = 0
KAM2 251659Z 19010KT 24/19 A3001 RMK A01 T02440190  RH  072%=      5-min Rain = 0
KAM2 251700Z 18012KT 25/19 A30 RMK A01 T02460187  RH  070%=      5-min Rain = 0
KAM2 251701Z 19010KT 25/19 A30 RMK A01 T02470186  RH  069%=      5-min Rain = 0
KAM2 251702Z 18008KT 25/19 A30 RMK A01 T02470188  RH  070%=      5-min Rain = 0
KAM2 251703Z 17010KT 25/19 A30 RMK A01 T02480190  RH  070%=      5-min Rain = 0
KAM2 251704Z 17008KT 25/19 A30 RMK A01 T02480188  RH  069%=      5-min Rain = 0
KAM2 251705Z 17006G11KT 25/19 A30 RMK A01 T02480191  RH  070%=      5-min Rain = 0
KAM2 251706Z 19010KT 25/19 A30 RMK A01 T02490188  RH  069%=      5-min Rain = 0
KAM2 251707Z 17009KT 25/19 A30 RMK A01 T02490189  RH  069%=      5-min Rain = 0
KAM2 251708Z 17011KT 25/19 A30 RMK A01 T02490189  RH  069%=      5-min Rain = 0
KAM2 251709Z 20009KT 25/19 A30 RMK A01 T02480190  RH  070%=      5-min Rain = 0
KAM2 251710Z 20007KT 25/19 A30 RMK A01 T02470189  RH  070%=      5-min Rain = 0
KAM2 251711Z 18008KT 25/19 A30 RMK A01 T02460189  RH  070%=      5-min Rain = 0
KAM2 251712Z 17012KT 25/19 A30 RMK A01 T02450189  RH  071%=      5-min Rain = 0
KAM2 251713Z 17009KT 25/19 A30 RMK A01 T02450187  RH  070%=      5-min Rain = 0
KAM2 251714Z 17011KT 24/19 A30 RMK A01 T02440188  RH  071%=      5-min Rain = 0
KAM2 251715Z 18012KT 24/19 A30 RMK A01 T02440188  RH  071%=      5-min Rain = 0
KAM2 251716Z 18010KT 25/19 A30 RMK A01 T02450186  RH  070%=      5-min Rain = 0
KAM2 251717Z 18012KT 25/19 A30 RMK A01 T02460188  RH  070%=      5-min Rain = 0
KAM2 251718Z 15010KT 25/19 A30 RMK A01 T02470189  RH  070%=      5-min Rain = 0
KAM2 251719Z 15012KT 25/19 A30 RMK A01 T02470190  RH  071%=      5-min Rain = 0
KAM2 251720Z 17010KT 25/19 A30 RMK A01 T02470192  RH  071%=      5-min Rain = 0
KAM2 251721Z 18012KT 25/19 A30 RMK A01 T02470192  RH  071%=      5-min Rain = 0
KAM2 251722Z 18011KT 25/19 A30 RMK A01 T02480191  RH  071%=      5-min Rain = 0
KAM2 251723Z 17011KT 25/19 A30 RMK A01 T02490190  RH  070%=      5-min Rain = 0
KAM2 251724Z 18014KT 25/19 A30 RMK A01 T02510190  RH  069%=      5-min Rain = 0
KAM2 251725Z 18012KT 25/19 A30 RMK A01 T02520192  RH  069%=      5-min Rain = 0
KAM2 251726Z 17012KT 25/19 A30 RMK A01 T02540189  RH  067%=      5-min Rain = 0
KAM2 251727Z 17008KT 25/19 A30 RMK A01 T02520189  RH  068%=      5-min Rain = 0
KAM2 251728Z 17011KT 25/19 A30 RMK A01 T02510192  RH  070%=      5-min Rain = 0
KAM2 251729Z 17009KT 25/19 A30 RMK A01 T02520189  RH  068%=      5-min Rain = 0
KAM2 251730Z 17009KT 25/19 A30 RMK A01 T02510193  RH  070%=      5-min Rain = 0
KAM2 251731Z 18011KT 25/19 A30 RMK A01 T02510194  RH  070%=      5-min Rain = 0
KAM2 251732Z 16014KT 25/19 A30 RMK A01 T02520194  RH  070%=      5-min Rain = 0
KAM2 251733Z 16012KT 25/19 A30 RMK A01 T02520194  RH  070%=      5-min Rain = 0
KAM2 251734Z 16012KT 25/20 A30 RMK A01 T02520195  RH  071%=      5-min Rain = 0
KAM2 251735Z 16011KT 25/20 A30 RMK A01 T02520195  RH  071%=      5-min Rain = 0
KAM2 251736Z 17010KT 25/20 A30 RMK A01 T02510196  RH  071%=      5-min Rain = 0
KAM2 251737Z 17014KT 25/20 A30 RMK A01 T02520195  RH  071%=      5-min Rain = 0
KAM2 251738Z 16013KT 25/20 A30 RMK A01 T02520195  RH  071%=      5-min Rain = 0
KAM2 251739Z 16014KT 25/19 A30 RMK A01 T02520194  RH  070%=      5-min Rain = 0
KAM2 251740Z 16012KT 25/19 A30 RMK A01 T02530194  RH  070%=      5-min Rain = 0
KAM2 251741Z 16012KT 25/20 A30 RMK A01 T02540199  RH  071%=      5-min Rain = 0
KAM2 251742Z 17014KT 26/20 A30 RMK A01 T02550197  RH  070%=      5-min Rain = 0
KAM2 251743Z 18012KT 25/19 A30 RMK A01 T02530193  RH  069%=      5-min Rain = 0
KAM2 251744Z 17015KT 25/19 A30 RMK A01 T02510193  RH  070%=      5-min Rain = 0
KAM2 251745Z 16017KT 25/19 A30 RMK A01 T02480190  RH  070%=      5-min Rain = 0
KAM2 251746Z 16015KT 25/19 A30 RMK A01 T02460190  RH  071%=      5-min Rain = 0
KAM2 251747Z 16013KT 25/19 A30 RMK A01 T02450191  RH  072%=      5-min Rain = 0
KAM2 251748Z 16013KT 24/19 A30 RMK A01 T02440191  RH  072%=      5-min Rain = 0
KAM2 251749Z 16012KT 24/19 A2999 RMK A01 T02440190  RH  072%=      5-min Rain = 0
KAM2 251750Z 17010KT 24/19 A2999 RMK A01 T02440189  RH  071%=      5-min Rain = 0
KAM2 251751Z 17010KT 25/19 A2999 RMK A01 T02470190  RH  071%=      5-min Rain = 0
KAM2 251752Z 16012G18KT 25/20 A2999 RMK A01 T02520195  RH  071%=      5-min Rain = 0
KAM2 251753Z 16017KT 26/19 A2999 RMK A01 T02560194  RH  069%=      5-min Rain = 0
KAM2 251754Z 17017KT 26/19 A2999 RMK A01 T02570193  RH  068%=      5-min Rain = 0
KAM2 251755Z 17016KT 26/19 A2999 RMK A01 T02570191  RH  067%=      5-min Rain = 0
KAM2 251756Z 17014KT 26/19 A2999 RMK A01 T02550192  RH  068%=      5-min Rain = 0
KAM2 251757Z 17015KT 25/19 A2999 RMK A01 T02540192  RH  069%=      5-min Rain = 0
KAM2 251758Z 17013KT 25/19 A2999 RMK A01 T02520193  RH  070%=      5-min Rain = 0
KAM2 251759Z 17016KT 25/20 A2999 RMK A01 T02510195  RH  071%=      5-min Rain = 0
KAM2 251800Z 16015KT 25/19 A2999 RMK A01 T02500192  RH  070%=      5-min Rain = 0
KAM2 251801Z 16014KT 25/19 A2999 RMK A01 T02480191  RH  071%=      5-min Rain = 0
KAM2 251802Z 17013KT 25/19 A2999 RMK A01 T02480193  RH  072%=      5-min Rain = 0
KAM2 251803Z 18015KT 25/20 A2999 RMK A01 T02510195  RH  071%=      5-min Rain = 0
KAM2 251804Z 18016KT 25/19 A2999 RMK A01 T02530194  RH  070%=      5-min Rain = 0
KAM2 251805Z 17015KT 26/19 A2999 RMK A01 T02550194  RH  069%=      5-min Rain = 0
KAM2 251806Z 17014KT 26/20 A2999 RMK A01 T02570197  RH  070%=      5-min Rain = 0
KAM2 251807Z 17018KT 26/20 A2999 RMK A01 T02590195  RH  068%=      5-min Rain = 0
KAM2 251808Z 17017KT 26/19 A2999 RMK A01 T02580192  RH  067%=      5-min Rain = 0
KAM2 251809Z 16017KT 26/19 A2999 RMK A01 T02550194  RH  069%=      5-min Rain = 0
KAM2 251810Z 16018KT 25/19 A2999 RMK A01 T02530193  RH  069%=      5-min Rain = 0
KAM2 251811Z 17018KT 25/19 A2999 RMK A01 T02500190  RH  069%=      5-min Rain = 0
KAM2 251812Z 16016KT 25/19 A2998 RMK A01 T02490191  RH  070%=      5-min Rain = 0
KAM2 251813Z 16018KT 25/19 A2998 RMK A01 T02490191  RH  070%=      5-min Rain = 0
KAM2 251814Z 15015KT 25/19 A2998 RMK A01 T02500191  RH  070%=      5-min Rain = 0
KAM2 251815Z 15016KT 25/19 A2998 RMK A01 T02500190  RH  070%=      5-min Rain = 0
KAM2 251816Z 16013KT 25/19 A2998 RMK A01 T02490193  RH  071%=      5-min Rain = 0
KAM2 251817Z 16015KT 25/19 A2998 RMK A01 T02490192  RH  070%=      5-min Rain = 0
KAM2 251818Z 17014KT 25/19 A2998 RMK A01 T02490193  RH  071%=      5-min Rain = 0
KAM2 251819Z 17014KT 25/19 A2998 RMK A01 T02500193  RH  071%=      5-min Rain = 0
KAM2 251820Z 17015KT 25/19 A2998 RMK A01 T02530191  RH  069%=      5-min Rain = 0
KAM2 251821Z 17016KT 25/19 A2999 RMK A01 T02540191  RH  068%=      5-min Rain = 0
KAM2 251822Z 17015KT 26/19 A2998 RMK A01 T02550189  RH  067%=      5-min Rain = 0
KAM2 251823Z 16013KT 25/19 A2998 RMK A01 T02530191  RH  068%=      5-min Rain = 0
KAM2 251824Z 15014G19KT 25/19 A2998 RMK A01 T02530187  RH  067%=      5-min Rain = 0
KAM2 251825Z 16016KT 25/19 A2998 RMK A01 T02520187  RH  067%=      5-min Rain = 0
KAM2 251826Z 16017KT 25/19 A2998 RMK A01 T02510188  RH  068%=      5-min Rain = 0
KAM2 251827Z 16015KT 25/19 A2998 RMK A01 T02500188  RH  068%=      5-min Rain = 0
KAM2 251828Z 16015G20KT 25/19 A2998 RMK A01 T02510190  RH  069%=      5-min Rain = 0
KAM2 251829Z 16016KT 25/19 A2998 RMK A01 T02520191  RH  069%=      5-min Rain = 0
KAM2 251830Z 16016KT 25/19 A2998 RMK A01 T02520191  RH  069%=      5-min Rain = 0
KAM2 251831Z 17017KT 25/19 A2998 RMK A01 T02510191  RH  069%=      5-min Rain = 0
KAM2 251832Z 16017KT 25/19 A2998 RMK A01 T02500190  RH  069%=      5-min Rain = 0
KAM2 251833Z 16016KT 25/19 A2998 RMK A01 T02490189  RH  069%=      5-min Rain = 0
KAM2 251834Z 16015KT 25/19 A2998 RMK A01 T02480190  RH  070%=      5-min Rain = 0
KAM2 251835Z 17014KT 25/19 A2998 RMK A01 T02470190  RH  071%=      5-min Rain = 0
KAM2 251836Z 16015KT 25/19 A2998 RMK A01 T02460189  RH  071%=      5-min Rain = 0
KAM2 251837Z 16017KT 25/19 A2998 RMK A01 T02450189  RH  071%=      5-min Rain = 0
KAM2 251838Z 16016KT 24/19 A2997 RMK A01 T02440189  RH  071%=      5-min Rain = 0
KAM2 251839Z 16017KT 24/19 A2997 RMK A01 T02430188  RH  071%=      5-min Rain = 0
KAM2 251840Z 16015KT 24/19 A2997 RMK A01 T02420188  RH  072%=      5-min Rain = 0
KAM2 251841Z 15016KT 24/19 A2996 RMK A01 T02420188  RH  072%=      5-min Rain = 0
KAM2 251842Z 15014KT 24/19 A2996 RMK A01 T02410188  RH  072%=      5-min Rain = 0
KAM2 251843Z 15011KT 24/19 A2996 RMK A01 T02420190  RH  073%=      5-min Rain = 0
KAM2 251844Z 15013KT 25/19 A2996 RMK A01 T02450193  RH  073%=      5-min Rain = 0
KAM2 251845Z 14014KT 25/19 A2995 RMK A01 T02470193  RH  072%=      5-min Rain = 0
KAM2 251846Z 15016KT 25/19 A2995 RMK A01 T02470190  RH  070%=      5-min Rain = 0
KAM2 251847Z 14015KT 25/19 A2995 RMK A01 T02490190  RH  070%=      5-min Rain = 0
KAM2 251848Z 15016KT 25/19 A2995 RMK A01 T02510191  RH  069%=      5-min Rain = 0
KAM2 251849Z 15019KT 25/19 A2995 RMK A01 T02520190  RH  069%=      5-min Rain = 0
KAM2 251850Z 16016KT 25/19 A2995 RMK A01 T02520190  RH  068%=      5-min Rain = 0
KAM2 251851Z 16016KT 25/19 A2995 RMK A01 T02520190  RH  068%=      5-min Rain = 0
KAM2 251852Z 15017KT 25/19 A2995 RMK A01 T02520191  RH  069%=      5-min Rain = 0
KAM2 251853Z 15014KT 25/19 A2994 RMK A01 T02520191  RH  069%=      5-min Rain = 0
KAM2 251854Z 15014KT 25/19 A2994 RMK A01 T02510191  RH  069%=      5-min Rain = 0
KAM2 251855Z 15013KT 25/19 A2994 RMK A01 T02510192  RH  070%=      5-min Rain = 0
KAM2 251856Z 16015KT 25/19 A2994 RMK A01 T02520192  RH  070%=      5-min Rain = 0
KAM2 251857Z 16016KT 25/19 A2994 RMK A01 T02520192  RH  069%=      5-min Rain = 0
KAM2 251858Z 15018KT 25/19 A2994 RMK A01 T02500191  RH  070%=      5-min Rain = 0
KAM2 251859Z 16016G21KT 25/19 A2994 RMK A01 T02480192  RH  071%=      5-min Rain = 0
KAM2 251900Z 16017KT 25/19 A2994 RMK A01 T02470190  RH  071%=      5-min Rain = 0
KAM2 251901Z 16015KT 25/19 A2994 RMK A01 T02460191  RH  071%=      5-min Rain = 0
KAM2 251902Z 15015G21KT 25/19 A2994 RMK A01 T02450191  RH  072%=      5-min Rain = 0
KAM2 251903Z 15018KT 24/19 A2994 RMK A01 T02440190  RH  072%=      5-min Rain = 0
KAM2 251904Z 14018KT 24/19 A2994 RMK A01 T02420190  RH  073%=      5-min Rain = 0
KAM2 251905Z 14017KT 24/19 A2994 RMK A01 T02400190  RH  073%=      5-min Rain = 0
KAM2 251906Z 15015KT 24/19 A2994 RMK A01 T02390189  RH  074%=      5-min Rain = 0
KAM2 251907Z 15012KT 24/19 A2994 RMK A01 T02380190  RH  075%=      5-min Rain = 0
KAM2 251908Z 16017G22KT 24/19 A2994 RMK A01 T02360189  RH  075%=      5-min Rain = 0
KAM2 251909Z 16014KT 24/19 A2994 RMK A01 T02350189  RH  075%=      5-min Rain = 0
KAM2 251910Z 15015G20KT 23/19 A2994 RMK A01 T02340191  RH  077%=      5-min Rain = 0
KAM2 251911Z 14016G21KT 23/19 A2994 RMK A01 T02320190  RH  077%=      5-min Rain = 0
KAM2 251912Z 15013KT 23/19 A2994 RMK A01 T02310192  RH  079%=      5-min Rain = 0
KAM2 251913Z 16016KT 23/19 A2993 RMK A01 T02290192  RH  080%=      5-min Rain = 0
KAM2 251914Z 14012KT 23/19 A2993 RMK A01 T02270193  RH  081%=      5-min Rain = 0
KAM2 251915Z 15011KT 23/20 A2993 RMK A01 T02260195  RH  083%=      5-min Rain = 0
KAM2 251916Z 14014KT 23/19 A2993 RMK A01 T02250194  RH  083%=      5-min Rain = 0
KAM2 251917Z 15014G19KT 22/19 A2993 RMK A01 T02230194  RH  083%=      5-min Rain = 0
KAM2 251918Z 15016KT 22/19 A2993 RMK A01 T02230193  RH  083%=      5-min Rain = 0
KAM2 251919Z 15013KT 22/19 A2993 RMK A01 T02230194  RH  083%=      5-min Rain = 0
KAM2 251920Z 15012KT 22/19 A2994 RMK A01 T02220194  RH  084%=      5-min Rain = 0
KAM2 251921Z 15014KT 22/19 A2994 RMK A01 T02230193  RH  083%=      5-min Rain = 0
KAM2 251922Z 15012KT 22/19 A2994 RMK A01 T02230192  RH  083%=      5-min Rain = 0
KAM2 251923Z 15013KT 22/19 A2994 RMK A01 T02230193  RH  083%=      5-min Rain = 0
KAM2 251924Z 15010KT 22/19 A2994 RMK A01 T02230193  RH  083%=      5-min Rain = 0
KAM2 251925Z 15011KT 22/19 A2994 RMK A01 T02230194  RH  083%=      5-min Rain = 0
KAM2 251926Z 15011KT 22/19 A2994 RMK A01 T02230194  RH  084%=      5-min Rain = 0
KAM2 251927Z 16011KT 22/19 A2994 RMK A01 T02230194  RH  084%=      5-min Rain = 0
KAM2 251928Z 15010KT 22/19 A2995 RMK A01 T02230194  RH  084%=      5-min Rain = 0
KAM2 251929Z 15011KT 22/19 A2994 RMK A01 T02230194  RH  083%=      5-min Rain = 0
KAM2 251930Z 15012G18KT 22/19 A2994 RMK A01 T02240194  RH  083%=      5-min Rain = 0
KAM2 251931Z 15014KT 22/19 A2994 RMK A01 T02230193  RH  083%=      5-min Rain = 0
KAM2 251932Z 15017KT 22/19 A2994 RMK A01 T02240191  RH  081%=      5-min Rain = 0
KAM2 251933Z 15013KT 23/19 A2994 RMK A01 T02250191  RH  081%=      5-min Rain = 0
KAM2 251934Z 15011KT 23/19 A2994 RMK A01 T02260192  RH  081%=      5-min Rain = 0
KAM2 251935Z 15013KT 23/19 A2994 RMK A01 T02260192  RH  081%=      5-min Rain = 0
KAM2 251936Z 15013KT 23/19 A2994 RMK A01 T02250192  RH  082%=      5-min Rain = 0
KAM2 251937Z 15013KT 23/19 A2994 RMK A01 T02250193  RH  082%=      5-min Rain = 0
KAM2 251938Z 15015G20KT 23/19 A2994 RMK A01 T02250193  RH  082%=      5-min Rain = 0
KAM2 251939Z 15016KT 22/19 A2994 RMK A01 T02240194  RH  083%=      5-min Rain = 0
KAM2 251940Z 15017KT 22/20 A2994 RMK A01 T02240195  RH  084%=      5-min Rain = 0
KAM2 251941Z 15015KT 22/20 A2994 RMK A01 T02220196  RH  085%=      5-min Rain = 0
KAM2 251942Z 15014KT 22/20 A2994 RMK A01 T02210197  RH  086%=      5-min Rain = 0
KAM2 251943Z 16016KT 22/20 A2994 RMK A01 T02200198  RH  087%=      5-min Rain = 0
KAM2 251944Z 15014KT 22/20 A2994 RMK A01 T02180198  RH  088%=      5-min Rain = 0
KAM2 251945Z 15016KT 22/20 A2994 RMK A01 T02170198  RH  089%=      5-min Rain = 0
KAM2 251946Z 16015KT 22/20 A2994 RMK A01 T02170198  RH  089%=      5-min Rain = 0
KAM2 251947Z 16017KT 22/20 A2994 RMK A01 T02170198  RH  089%=      5-min Rain = 0
KAM2 251948Z 16018KT 22/20 A2994 RMK A01 T02160197  RH  089%=      5-min Rain = 0
KAM2 251949Z 16017KT 22/20 A2994 RMK A01 T02170197  RH  089%=      5-min Rain = 0
KAM2 251950Z 15015KT 22/20 A2994 RMK A01 T02170197  RH  088%=      5-min Rain = 0
KAM2 251951Z 17018KT 22/20 A2994 RMK A01 T02170196  RH  088%=      5-min Rain = 0
KAM2 251952Z 17020KT 22/19 A2994 RMK A01 T02170194  RH  087%=      5-min Rain = 0
KAM2 251953Z 17020KT 22/19 A2994 RMK A01 T02180194  RH  086%=      5-min Rain = 0
KAM2 251954Z 17018G24KT 22/19 A2994 RMK A01 T02180193  RH  086%=      5-min Rain = 0
KAM2 251955Z 16018G24KT 22/19 A2994 RMK A01 T02180192  RH  086%=      5-min Rain = 0
KAM2 251956Z 16017G23KT 22/19 A2994 RMK A01 T02180192  RH  086%=      5-min Rain = 0
KAM2 251957Z 16017KT 22/19 A2993 RMK A01 T02170193  RH  086%=      5-min Rain = 0
KAM2 251958Z 16017G22KT 22/19 A2994 RMK A01 T02170193  RH  086%=      5-min Rain = 0
KAM2 251959Z 16014KT 22/19 A2994 RMK A01 T02170193  RH  086%=      5-min Rain = 0
KAM2 252000Z 16017G22KT 22/19 A2994 RMK A01 T02160193  RH  086%=      5-min Rain = 0
KAM2 252001Z 16017KT 22/19 A2994 RMK A01 T02160192  RH  086%=      5-min Rain = 0
KAM2 252002Z 16016KT 22/19 A2994 RMK A01 T02160192  RH  087%=      5-min Rain = 0
KAM2 252003Z 16016KT 22/19 A2994 RMK A01 T02160192  RH  087%=      5-min Rain = 0
KAM2 252004Z 17016KT 22/19 A2995 RMK A01 T02150193  RH  087%=      5-min Rain = 0
KAM2 252005Z 16016KT 22/19 A2995 RMK A01 T02150192  RH  087%=      5-min Rain = 0
KAM2 252006Z 17016KT 22/19 A2995 RMK A01 T02150193  RH  087%=      5-min Rain = 0
KAM2 252007Z 17015G20KT 22/19 A2996 RMK A01 T02150193  RH  087%=      5-min Rain = 0
KAM2 252008Z 17013G19KT 21/19 A2996 RMK A01 T02140192  RH  087%=      5-min Rain = 0
KAM2 252009Z 17015KT 21/19 A2996 RMK A01 T02140192  RH  087%=      5-min Rain = 0
KAM2 252010Z 17015KT 21/19 A2995 RMK A01 T02140191  RH  087%=      5-min Rain = 0
KAM2 252011Z 17014KT 21/19 A2995 RMK A01 T02140191  RH  087%=      5-min Rain = 0
KAM2 252012Z 17016KT 21/19 A2995 RMK A01 T02140191  RH  087%=      5-min Rain = 0
KAM2 252013Z 17011KT 21/19 A2995 RMK A01 T02140191  RH  086%=      5-min Rain = 0
KAM2 252014Z 17009KT 21/19 A2995 RMK A01 T02140192  RH  087%=      5-min Rain = 0
KAM2 252015Z 18008KT 21/19 A2996 RMK A01 T02130193  RH  088%=      5-min Rain = 0
KAM2 252016Z 17010KT 21/19 A2996 RMK A01 T02130192  RH  088%=      5-min Rain = 0
KAM2 252017Z 18011KT 21/19 A2996 RMK A01 T02120192  RH  088%=      5-min Rain = 0
KAM2 252018Z 19008KT 21/19 A2996 RMK A01 T02120192  RH  088%=      5-min Rain = 0
KAM2 252019Z 18009KT 21/19 A2997 RMK A01 T02120193  RH  089%=      5-min Rain = 0
KAM2 252020Z 19010KT 21/19 A2997 RMK A01 T02120193  RH  089%=      5-min Rain = 0
KAM2 252021Z 19007KT 21/19 A2997 RMK A01 T02120192  RH  088%=      5-min Rain = 0
KAM2 252022Z 20007KT 21/19 A2997 RMK A01 T02120193  RH  089%=      5-min Rain = 0
KAM2 252023Z 20006KT 21/19 A2997 RMK A01 T02120193  RH  089%=      5-min Rain = 0
KAM2 252024Z 19009KT 21/19 A2997 RMK A01 T02120193  RH  089%=      5-min Rain = 0
KAM2 252025Z 20007KT 21/19 A2997 RMK A01 T02120192  RH  088%=      5-min Rain = 0
KAM2 252026Z 21007KT 21/19 A2998 RMK A01 T02130192  RH  088%=      5-min Rain = 0
KAM2 252027Z 20007KT 21/19 A2998 RMK A01 T02130193  RH  088%=      5-min Rain = 0
KAM2 252028Z 22005KT 21/19 A2998 RMK A01 T02130193  RH  088%=      5-min Rain = 0
KAM2 252029Z 22005KT 21/19 A2998 RMK A01 T02130193  RH  088%=      5-min Rain = 0
KAM2 252030Z 26005KT 21/19 A2999 RMK A01 T02130193  RH  088%=      5-min Rain = 0
KAM2 252031Z 26006KT 21/20 A2999 RMK A01 T02130195  RH  089%=      5-min Rain = 0
KAM2 252032Z 27005KT 21/20 A30 RMK A01 T02120195  RH  090%=      5-min Rain = 0
KAM2 252033Z 28006KT 21/20 A30 RMK A01 T02120195  RH  090%=      5-min Rain = 0
KAM2 252034Z 27005KT 21/19 A3001 RMK A01 T02120194  RH  090%=      5-min Rain = 0
KAM2 252035Z 30009KT 21/19 A3001 RMK A01 T02110186  RH  086%=      5-min Rain = 0
KAM2 252036Z 30011KT 20/16 A3001 RMK A01 T02030160  RH  076%=      5-min Rain = 0
KAM2 252037Z 30009KT 20/16 A3001 RMK A01 T01960156  RH  078%=      5-min Rain = 0
KAM2 252038Z 30008KT 19/16 A3002 RMK A01 T01920156  RH  080%=      5-min Rain = 0
KAM2 252039Z 31010KT 19/16 A3002 RMK A01 T01880159  RH  083%=      5-min Rain = 0
KAM2 252040Z 31011KT 19/16 A3002 RMK A01 T01860158  RH  084%=      5-min Rain = 0
KAM2 252041Z 31008KT 18/16 A3002 RMK A01 T01830157  RH  085%=      5-min Rain = 0
KAM2 252042Z 31006KT 18/16 A3002 RMK A01 T01820159  RH  087%=      5-min Rain = 0
KAM2 252043Z 31008KT 18/16 A3002 RMK A01 T01800160  RH  088%=      5-min Rain = 0
KAM2 252044Z 30010KT 18/16 A3002 RMK A01 T01790160  RH  088%=      5-min Rain = 0
KAM2 252045Z 30009KT 18/16 A3002 RMK A01 T01790159  RH  088%=      5-min Rain = 0
KAM2 252046Z 31013KT 18/15 A3002 RMK A01 T01780153  RH  085%=      5-min Rain = 0
KAM2 252047Z 31011KT 18/15 A3001 RMK A01 T01770148  RH  083%=      5-min Rain = 0.01
KAM2 252048Z 31013KT 18/15 A3001 RMK A01 T01760147  RH  083%=      5-min Rain = 0
KAM2 252049Z 31010KT 18/15 A3001 RMK A01 T01750146  RH  083%=      5-min Rain = 0
KAM2 252050Z 31008KT 17/15 A3001 RMK A01 T01730148  RH  085%=      5-min Rain = 0
KAM2 252051Z 31012KT 17/14 A30 RMK A01 T01710139  RH  081%=      5-min Rain = 0
KAM2 252052Z 33013G18KT 17/14 A30 RMK A01 T01710135  RH  079%=      5-min Rain = 0
KAM2 252053Z 32014KT 17/13 A30 RMK A01 T01700131  RH  077%=      5-min Rain = 0
KAM2 252054Z 32014KT 17/13 A30 RMK A01 T01680130  RH  078%=      5-min Rain = 0
KAM2 252055Z 32014KT 17/13 A30 RMK A01 T01660131  RH  080%=      5-min Rain = 0.01
KAM2 252056Z 32014KT 16/13 A30 RMK A01 T01630132  RH  081%=      5-min Rain = 0
KAM2 252057Z 33012KT 16/13 A30 RMK A01 T01620132  RH  083%=      5-min Rain = 0.01
KAM2 252058Z 33011KT 16/13 A3001 RMK A01 T01600132  RH  084%=      5-min Rain = 0.01
KAM2 252059Z 33012KT 16/13 A3001 RMK A01 T01590132  RH  084%=      5-min Rain = 0
KAM2 252100Z 33012G19KT 16/13 A3001 RMK A01 T01580134  RH  086%=      5-min Rain = 0.01
KAM2 252101Z 33012KT 16/13 A3002 RMK A01 T01570134  RH  086%=      5-min Rain = 0
KAM2 252102Z 34011KT 16/14 A3002 RMK A01 T01560135  RH  087%=      5-min Rain = 0
KAM2 252103Z 34012KT 16/14 A3001 RMK A01 T01550136  RH  088%=      5-min Rain = 0
KAM2 252104Z 33014KT 15/14 A3001 RMK A01 T01540137  RH  089%=      5-min Rain = 0
KAM2 252105Z 34013KT 15/14 A3001 RMK A01 T01540138  RH  090%=      5-min Rain = 0
KAM2 252106Z 34012G17KT 15/14 A3001 RMK A01 T01540139  RH  091%=      5-min Rain = 0.01
KAM2 252107Z 34008KT 15/14 A3001 RMK A01 T01530139  RH  092%=      5-min Rain = 0
KAM2 252108Z 34010KT 15/14 A30 RMK A01 T01530141  RH  093%=      5-min Rain = 0
KAM2 252109Z 33013KT 15/14 A30 RMK A01 T01520142  RH  094%=      5-min Rain = 0
KAM2 252110Z 33011KT 15/14 A30 RMK A01 T01530143  RH  094%=      5-min Rain = 0
KAM2 252111Z 32012KT 15/14 A2999 RMK A01 T01530144  RH  095%=      5-min Rain = 0
KAM2 252112Z 33010KT 15/15 A30 RMK A01 T01520145  RH  095%=      5-min Rain = 0
KAM2 252113Z 33012KT 15/15 A30 RMK A01 T01530146  RH  095%=      5-min Rain = 0
KAM2 252114Z 34008KT 15/15 A30 RMK A01 T01530145  RH  095%=      5-min Rain = 0
KAM2 252115Z 34008KT 15/15 A30 RMK A01 T01530146  RH  096%=      5-min Rain = 0
KAM2 252116Z 33008KT 15/15 A30 RMK A01 T01530147  RH  096%=      5-min Rain = 0
KAM2 252117Z 32009KT 15/15 A30 RMK A01 T01530147  RH  096%=      5-min Rain = 0
KAM2 252118Z 32007KT 15/15 A30 RMK A01 T01530147  RH  096%=      5-min Rain = 0
KAM2 252119Z 31009KT 15/15 A3001 RMK A01 T01530147  RH  096%=      5-min Rain = 0
KAM2 252120Z 31010KT 15/15 A3001 RMK A01 T01540148  RH  096%=      5-min Rain = 0
KAM2 252121Z 31009KT 15/15 A3001 RMK A01 T01540148  RH  096%=      5-min Rain = 0.01
KAM2 252122Z 30010KT 15/15 A3001 RMK A01 T01540149  RH  096%=      5-min Rain = 0
KAM2 252123Z 29009KT 15/15 A3001 RMK A01 T01540148  RH  096%=      5-min Rain = 0
KAM2 252124Z 30008KT 15/15 A3001 RMK A01 T01540148  RH  096%=      5-min Rain = 0
KAM2 252125Z 30006KT 15/15 A3001 RMK A01 T01540148  RH  096%=      5-min Rain = 0
KAM2 252126Z 29007KT 15/15 A3001 RMK A01 T01540148  RH  097%=      5-min Rain = 0
KAM2 252127Z 31005KT 15/15 A3002 RMK A01 T01540149  RH  097%=      5-min Rain = 0.01
KAM2 252128Z 30007KT 15/15 A3002 RMK A01 T01540149  RH  096%=      5-min Rain = 0
KAM2 252129Z 30007KT 15/15 A3002 RMK A01 T01540148  RH  096%=      5-min Rain = 0.02
KAM2 252130Z 25004KT 15/15 A3002 RMK A01 T01540148  RH  096%=      5-min Rain = 0.02
KAM2 252131Z 22002KT 16/15 A3002 RMK A01 T01550149  RH  096%=      5-min Rain = 0.04
KAM2 252132Z 30001KT 16/15 A3001 RMK A01 T01550149  RH  096%=      5-min Rain = 0.06
KAM2 252133Z 36006KT 16/15 A2999 RMK A01 T01550149  RH  096%=      5-min Rain = 0.07
KAM2 252134Z 01005KT 16/15 A2997 RMK A01 T01550149  RH  096%=      5-min Rain = 0.05
KAM2 252135Z 10004KT 15/15 A2997 RMK A01 T01540149  RH  097%=      5-min Rain = 0.05
KAM2 252136Z 11005KT 15/15 A2996 RMK A01 T01530149  RH  097%=      5-min Rain = 0.03
KAM2 252137Z 11003KT 15/15 A2996 RMK A01 T01530149  RH  097%=      5-min Rain = 0.04
KAM2 252138Z 12006KT 15/15 A2996 RMK A01 T01540150  RH  098%=      5-min Rain = 0.03
KAM2 252139Z 12006KT 16/15 A2996 RMK A01 T01550151  RH  098%=      5-min Rain = 0.02
KAM2 252140Z 18007KT 16/16 A2996 RMK A01 T01580155  RH  098%=      5-min Rain = 0
KAM2 252141Z 17008KT 16/16 A2996 RMK A01 T01610158  RH  098%=      5-min Rain = 0
KAM2 252142Z 17009KT 17/16 A2996 RMK A01 T01660164  RH  099%=      5-min Rain = 0
KAM2 252143Z 17008KT 17/17 A2995 RMK A01 T01720170  RH  099%=      5-min Rain = 0
KAM2 252144Z 16011KT 18/17 A2995 RMK A01 T01750173  RH  099%=      5-min Rain = 0
KAM2 252145Z 17011KT 17/17 A2995 RMK A01 T01740171  RH  098%=      5-min Rain = 0
KAM2 252146Z 16013KT 17/17 A2995 RMK A01 T01730169  RH  098%=      5-min Rain = 0
KAM2 252147Z 16012KT 17/17 A2995 RMK A01 T01730168  RH  097%=      5-min Rain = 0
KAM2 252148Z 16010KT 17/17 A2994 RMK A01 T01740168  RH  097%=      5-min Rain = 0
KAM2 252149Z 17010KT 18/17 A2994 RMK A01 T01770172  RH  097%=      5-min Rain = 0
KAM2 252150Z 17008KT 18/17 A2994 RMK A01 T01770169  RH  095%=      5-min Rain = 0
KAM2 252151Z 17009KT 18/17 A2994 RMK A01 T01790170  RH  095%=      5-min Rain = 0
KAM2 252152Z 16010KT 18/17 A2994 RMK A01 T01810172  RH  094%=      5-min Rain = 0
KAM2 252153Z 16010KT 18/17 A2994 RMK A01 T01830174  RH  094%=      5-min Rain = 0
KAM2 252154Z 16009KT 18/17 A2994 RMK A01 T01830169  RH  092%=      5-min Rain = 0
KAM2 252155Z 15009KT 18/17 A2994 RMK A01 T01830170  RH  092%=      5-min Rain = 0
KAM2 252156Z 15010KT 18/17 A2994 RMK A01 T01830170  RH  092%=      5-min Rain = 0
KAM2 252157Z 15011KT 18/17 A2994 RMK A01 T01830168  RH  091%=      5-min Rain = 0
KAM2 252158Z 15008KT 18/17 A2994 RMK A01 T01820168  RH  092%=      5-min Rain = 0
KAM2 252159Z 15009KT 18/17 A2994 RMK A01 T01810168  RH  092%=      5-min Rain = 0
KAM2 252200Z 15008KT 18/17 A2994 RMK A01 T01790166  RH  092%=      5-min Rain = 0
KAM2 252201Z 15010KT 18/16 A2994 RMK A01 T01770163  RH  092%=      5-min Rain = 0
KAM2 252202Z 15009KT 17/16 A2994 RMK A01 T01740161  RH  092%=      5-min Rain = 0
KAM2 252203Z 16006KT 17/16 A2994 RMK A01 T01720160  RH  093%=      5-min Rain = 0
KAM2 252204Z 16007KT 17/16 A2994 RMK A01 T01710160  RH  093%=      5-min Rain = 0
KAM2 252205Z 16008KT 17/16 A2994 RMK A01 T01710160  RH  093%=      5-min Rain = 0
KAM2 252206Z 16007KT 17/16 A2994 RMK A01 T01710160  RH  093%=      5-min Rain = 0
KAM2 252207Z 16007KT 17/16 A2994 RMK A01 T01700160  RH  094%=      5-min Rain = 0
KAM2 252208Z 16008KT 17/16 A2994 RMK A01 T01700160  RH  094%=      5-min Rain = 0
KAM2 252209Z 16008KT 17/16 A2994 RMK A01 T01690160  RH  094%=      5-min Rain = 0
KAM2 252210Z 15008KT 17/16 A2994 RMK A01 T01690158  RH  093%=      5-min Rain = 0
KAM2 252211Z 16009KT 17/16 A2994 RMK A01 T01690158  RH  093%=      5-min Rain = 0
KAM2 252212Z 14010KT 17/16 A2994 RMK A01 T01680158  RH  094%=      5-min Rain = 0
KAM2 252213Z 14011KT 17/16 A2994 RMK A01 T01680158  RH  094%=      5-min Rain = 0
KAM2 252214Z 13012KT 17/16 A2994 RMK A01 T01680159  RH  094%=      5-min Rain = 0
KAM2 252215Z 13010KT 17/16 A2994 RMK A01 T01680158  RH  094%=      5-min Rain = 0
KAM2 252216Z 13008KT 17/16 A2994 RMK A01 T01680158  RH  094%=      5-min Rain = 0
KAM2 252217Z 13008KT 17/16 A2995 RMK A01 T01670157  RH  094%=      5-min Rain = 0
KAM2 252218Z 13006KT 17/16 A2995 RMK A01 T01670158  RH  094%=      5-min Rain = 0
KAM2 252219Z 12007KT 17/16 A2995 RMK A01 T01670158  RH  094%=      5-min Rain = 0
KAM2 252220Z 11008KT 17/16 A2995 RMK A01 T01670157  RH  094%=      5-min Rain = 0
KAM2 252221Z 11007KT 17/16 A2994 RMK A01 T01680157  RH  093%=      5-min Rain = 0
KAM2 252222Z 11007KT 17/16 A2994 RMK A01 T01700159  RH  093%=      5-min Rain = 0
KAM2 252223Z 13008KT 17/16 A2995 RMK A01 T01730162  RH  093%=      5-min Rain = 0
KAM2 252224Z 14007KT 18/16 A2995 RMK A01 T01750162  RH  092%=      5-min Rain = 0
KAM2 252225Z 14007KT 18/16 A2995 RMK A01 T01770164  RH  092%=      5-min Rain = 0
KAM2 252226Z 15008KT 18/17 A2995 RMK A01 T01790165  RH  091%=      5-min Rain = 0
KAM2 252227Z 14007KT 18/17 A2995 RMK A01 T01820168  RH  092%=      5-min Rain = 0
KAM2 252228Z 12010KT 19/17 A2994 RMK A01 T01850170  RH  091%=      5-min Rain = 0
KAM2 252229Z 14011KT 19/17 A2994 RMK A01 T01870168  RH  089%=      5-min Rain = 0
KAM2 252230Z 14010KT 19/17 A2994 RMK A01 T01880169  RH  089%=      5-min Rain = 0
KAM2 252231Z 14009KT 19/17 A2994 RMK A01 T01900172  RH  089%=      5-min Rain = 0
KAM2 252232Z 13010KT 19/17 A2994 RMK A01 T01920171  RH  088%=      5-min Rain = 0
KAM2 252233Z 13009KT 19/17 A2993 RMK A01 T01930171  RH  087%=      5-min Rain = 0
KAM2 252234Z 13009KT 20/17 A2993 RMK A01 T01950172  RH  087%=      5-min Rain = 0
KAM2 252235Z 14010KT 20/17 A2993 RMK A01 T01960172  RH  086%=      5-min Rain = 0
KAM2 252236Z 13009KT 20/17 A2993 RMK A01 T01970170  RH  085%=      5-min Rain = 0
KAM2 252237Z 11009KT 20/17 A2993 RMK A01 T01970173  RH  086%=      5-min Rain = 0
KAM2 252238Z 12011KT 20/17 A2993 RMK A01 T01980170  RH  084%=      5-min Rain = 0
KAM2 252239Z 12012KT 20/17 A2992 RMK A01 T01980170  RH  084%=      5-min Rain = 0
KAM2 252240Z 11012KT 20/17 A2992 RMK A01 T01980170  RH  084%=      5-min Rain = 0
KAM2 252241Z 12011G16KT 20/17 A2992 RMK A01 T01980169  RH  083%=      5-min Rain = 0
KAM2 252242Z 12013KT 20/17 A2992 RMK A01 T01980170  RH  084%=      5-min Rain = 0
KAM2 252243Z 13011KT 20/17 A2992 RMK A01 T01990171  RH  084%=      5-min Rain = 0
KAM2 252244Z 14013G18KT 20/17 A2993 RMK A01 T02010172  RH  083%=      5-min Rain = 0
KAM2 252245Z 13017KT 20/17 A2993 RMK A01 T02020172  RH  083%=      5-min Rain = 0
KAM2 252246Z 14017KT 20/17 A2993 RMK A01 T02040173  RH  082%=      5-min Rain = 0.01
KAM2 252247Z 15015KT 20/17 A2994 RMK A01 T02040173  RH  082%=      5-min Rain = 0
KAM2 252248Z 15019KT 20/17 A2994 RMK A01 T02030173  RH  083%=      5-min Rain = 0
KAM2 252249Z 14020G25KT 20/17 A2993 RMK A01 T02000168  RH  082%=      5-min Rain = 0
KAM2 252250Z 14018KT 20/17 A2993 RMK A01 T01970168  RH  083%=      5-min Rain = 0
KAM2 252251Z 14018KT 20/17 A2993 RMK A01 T01960168  RH  084%=      5-min Rain = 0
KAM2 252252Z 14018KT 20/17 A2993 RMK A01 T01960167  RH  083%=      5-min Rain = 0
KAM2 252253Z 13015G20KT 20/17 A2993 RMK A01 T01960169  RH  084%=      5-min Rain = 0
KAM2 252254Z 13017G22KT 20/17 A2993 RMK A01 T01980171  RH  084%=      5-min Rain = 0
KAM2 252255Z 13017G22KT 20/17 A2993 RMK A01 T01970169  RH  084%=      5-min Rain = 0
KAM2 252256Z 13017KT 20/17 A2993 RMK A01 T01960168  RH  084%=      5-min Rain = 0
KAM2 252257Z 13016G21KT 20/17 A2993 RMK A01 T01950167  RH  083%=      5-min Rain = 0
KAM2 252258Z 12013G18KT 20/17 A2993 RMK A01 T01950169  RH  085%=      5-min Rain = 0
KAM2 252259Z 13013G19KT 20/17 A2993 RMK A01 T01980173  RH  085%=      5-min Rain = 0
KAM2 252300Z 13019G25KT 20/17 A2993 RMK A01 T01990168  RH  082%=      5-min Rain = 0
KAM2 252301Z 12019KT 20/17 A2993 RMK A01 T01980165  RH  081%=      5-min Rain = 0
KAM2 252302Z 12018KT 20/16 A2993 RMK A01 T01960162  RH  081%=      5-min Rain = 0
KAM2 252303Z 13013KT 20/17 A2993 RMK A01 T01950165  RH  083%=      5-min Rain = 0
KAM2 252304Z 13014KT 20/17 A2992 RMK A01 T01970166  RH  082%=      5-min Rain = 0
KAM2 252305Z 13014KT 20/16 A2992 RMK A01 T01990164  RH  080%=      5-min Rain = 0
KAM2 252306Z 13012KT 20/16 A2991 RMK A01 T01990164  RH  080%=      5-min Rain = 0
KAM2 252307Z 13012KT 20/17 A2991 RMK A01 T01990166  RH  081%=      5-min Rain = 0
KAM2 252308Z 12015KT 20/16 A2991 RMK A01 T02010161  RH  078%=      5-min Rain = 0
KAM2 252309Z 12016KT 20/16 A2991 RMK A01 T02000160  RH  077%=      5-min Rain = 0
KAM2 252310Z 14014KT 20/16 A2991 RMK A01 T02000158  RH  077%=      5-min Rain = 0
KAM2 252311Z 13014KT 20/16 A2991 RMK A01 T01990158  RH  077%=      5-min Rain = 0
KAM2 252312Z 14012KT 20/16 A2991 RMK A01 T02000160  RH  078%=      5-min Rain = 0
KAM2 252313Z 14014KT 20/16 A2991 RMK A01 T02000159  RH  077%=      5-min Rain = 0
KAM2 252314Z 15014KT 20/16 A2992 RMK A01 T02020157  RH  075%=      5-min Rain = 0
KAM2 252315Z 14014KT 20/16 A2992 RMK A01 T02030161  RH  076%=      5-min Rain = 0
KAM2 252316Z 15015G20KT 21/16 A2992 RMK A01 T02050163  RH  077%=      5-min Rain = 0
KAM2 252317Z 14018KT 21/16 A2991 RMK A01 T02050161  RH  076%=      5-min Rain = 0
KAM2 252318Z 14017KT 20/16 A2991 RMK A01 T02030156  RH  075%=      5-min Rain = 0
KAM2 252319Z 14016KT 20/16 A2991 RMK A01 T02000156  RH  076%=      5-min Rain = 0
KAM2 252320Z 14014KT 20/16 A2992 RMK A01 T01980157  RH  077%=      5-min Rain = 0
KAM2 252321Z 15013KT 20/16 A2992 RMK A01 T01970160  RH  079%=      5-min Rain = 0
KAM2 252322Z 12011KT 20/16 A2991 RMK A01 T01970162  RH  080%=      5-min Rain = 0
KAM2 252323Z 12013KT 20/16 A2991 RMK A01 T01970163  RH  081%=      5-min Rain = 0
KAM2 252324Z 14011KT 20/17 A2992 RMK A01 T01970165  RH  082%=      5-min Rain = 0
KAM2 252325Z 14012KT 20/17 A2992 RMK A01 T01970165  RH  082%=      5-min Rain = 0
KAM2 252326Z 14012KT 20/16 A2992 RMK A01 T01970164  RH  081%=      5-min Rain = 0
KAM2 252327Z 13008KT 20/17 A2992 RMK A01 T01980165  RH  082%=      5-min Rain = 0
KAM2 252328Z 12011KT 20/17 A2992 RMK A01 T01990165  RH  081%=      5-min Rain = 0
KAM2 252329Z 14013KT 20/16 A2992 RMK A01 T02000163  RH  079%=      5-min Rain = 0
KAM2 252330Z 13012KT 20/16 A2992 RMK A01 T01990163  RH  080%=      5-min Rain = 0
KAM2 252331Z 12011KT 20/16 A2992 RMK A01 T01990163  RH  080%=      5-min Rain = 0
KAM2 252332Z 13013KT 20/16 A2992 RMK A01 T01990163  RH  080%=      5-min Rain = 0
KAM2 252333Z 14010KT 20/16 A2992 RMK A01 T01990164  RH  080%=      5-min Rain = 0
KAM2 252334Z 14009KT 20/17 A2992 RMK A01 T01990166  RH  081%=      5-min Rain = 0
KAM2 252335Z 15009KT 20/17 A2992 RMK A01 T02000166  RH  081%=      5-min Rain = 0
KAM2 252336Z 15013KT 20/17 A2992 RMK A01 T02010167  RH  081%=      5-min Rain = 0
KAM2 252337Z 15011KT 20/17 A2992 RMK A01 T02020166  RH  080%=      5-min Rain = 0
KAM2 252338Z 15012KT 20/17 A2993 RMK A01 T02030167  RH  080%=      5-min Rain = 0
KAM2 252339Z 15010KT 20/17 A2993 RMK A01 T02030168  RH  080%=      5-min Rain = 0
KAM2 252340Z 15012KT 20/17 A2993 RMK A01 T02030170  RH  081%=      5-min Rain = 0
KAM2 252341Z 15012KT 21/17 A2993 RMK A01 T02050169  RH  080%=      5-min Rain = 0
KAM2 252342Z 15012KT 21/17 A2992 RMK A01 T02050170  RH  080%=      5-min Rain = 0
KAM2 252343Z 16012KT 21/17 A2992 RMK A01 T02060171  RH  080%=      5-min Rain = 0
KAM2 252344Z 16013KT 21/17 A2992 RMK A01 T02080170  RH  079%=      5-min Rain = 0
KAM2 252345Z 16012KT 21/17 A2992 RMK A01 T02100172  RH  079%=      5-min Rain = 0
KAM2 252346Z 16012KT 21/17 A2991 RMK A01 T02120171  RH  078%=      5-min Rain = 0
KAM2 252347Z 16009KT 21/17 A2991 RMK A01 T02130173  RH  078%=      5-min Rain = 0
KAM2 252348Z 17012KT 22/17 A2991 RMK A01 T02150173  RH  077%=      5-min Rain = 0
KAM2 252349Z 16014KT 22/18 A2991 RMK A01 T02170175  RH  077%=      5-min Rain = 0
KAM2 252350Z 16015KT 22/17 A2991 RMK A01 T02180172  RH  075%=      5-min Rain = 0
KAM2 252351Z 17015KT 22/17 A2991 RMK A01 T02190174  RH  076%=      5-min Rain = 0
KAM2 252352Z 17018KT 22/17 A2991 RMK A01 T02190171  RH  074%=      5-min Rain = 0
KAM2 252353Z 16018KT 22/17 A2991 RMK A01 T02200170  RH  073%=      5-min Rain = 0
KAM2 252354Z 16013G18KT 22/17 A2991 RMK A01 T02200171  RH  074%=      5-min Rain = 0
KAM2 252355Z 16016KT 22/17 A2991 RMK A01 T02210171  RH  073%=      5-min Rain = 0
KAM2 252356Z 16017KT 22/17 A2991 RMK A01 T02220168  RH  071%=      5-min Rain = 0
KAM2 252357Z 16016G21KT 22/17 A2991 RMK A01 T02230167  RH  070%=      5-min Rain = 0
KAM2 252358Z 16014G19KT 22/17 A2991 RMK A01 T02230167  RH  070%=      5-min Rain = 0
KAM2 252359Z 16016G21KT 22/17 A2991 RMK A01 T02240168  RH  070%=      5-min Rain = 0
KAM2 260000Z 16018KT 23/17 A2991 RMK A01 T02250167  RH  070%=      5-min Rain = 0
KAM2 260001Z 16020KT 23/16 A2991 RMK A01 T02250164  RH  068%=      5-min Rain = 0
KAM2 260002Z 16021KT 23/16 A2991 RMK A01 T02250163  RH  068%=      5-min Rain = 0
KAM2 260003Z 15017KT 22/16 A2991 RMK A01 T02240162  RH  068%=      5-min Rain = 0
KAM2 260004Z 15019KT 22/16 A2991 RMK A01 T02240164  RH  069%=      5-min Rain = 0
KAM2 260005Z 15019KT 22/16 A2991 RMK A01 T02240162  RH  068%=      5-min Rain = 0
KAM2 260006Z 16017KT 22/16 A2992 RMK A01 T02230163  RH  069%=      5-min Rain = 0
KAM2 260007Z 15015KT 22/17 A2992 RMK A01 T02230165  RH  070%=      5-min Rain = 0
KAM2 260008Z 15016G23KT 22/17 A2991 RMK A01 T02230165  RH  070%=      5-min Rain = 0
KAM2 260009Z 16017KT 22/17 A2991 RMK A01 T02230166  RH  070%=      5-min Rain = 0
KAM2 260010Z 16019KT 22/17 A2991 RMK A01 T02220167  RH  071%=      5-min Rain = 0
KAM2 260011Z 16016G25KT 22/17 A2991 RMK A01 T02220169  RH  072%=      5-min Rain = 0
KAM2 260012Z 16021KT 22/17 A2991 RMK A01 T02210167  RH  071%=      5-min Rain = 0
KAM2 260013Z 16019KT 22/17 A2991 RMK A01 T02210166  RH  071%=      5-min Rain = 0
KAM2 260014Z 15015KT 22/17 A2991 RMK A01 T02200168  RH  072%=      5-min Rain = 0
KAM2 260015Z 15017KT 22/17 A2991 RMK A01 T02200167  RH  072%=      5-min Rain = 0
KAM2 260016Z 16018KT 22/17 A2991 RMK A01 T02200165  RH  071%=      5-min Rain = 0
KAM2 260017Z 16020G26KT 22/16 A2991 RMK A01 T02200164  RH  070%=      5-min Rain = 0
KAM2 260018Z 16019G27KT 22/16 A2991 RMK A01 T02210163  RH  070%=      5-min Rain = 0
KAM2 260019Z 16019G24KT 22/16 A2991 RMK A01 T02190162  RH  070%=      5-min Rain = 0
KAM2 260020Z 16021G26KT 22/16 A2991 RMK A01 T02190162  RH  070%=      5-min Rain = 0
KAM2 260021Z 16021G26KT 22/16 A2991 RMK A01 T02180163  RH  071%=      5-min Rain = 0
KAM2 260022Z 16024G29KT 22/16 A2991 RMK A01 T02170161  RH  070%=      5-min Rain = 0
KAM2 260023Z 16019KT 22/16 A2991 RMK A01 T02160161  RH  071%=      5-min Rain = 0
KAM2 260024Z 15020G25KT 22/16 A2991 RMK A01 T02150163  RH  072%=      5-min Rain = 0
KAM2 260025Z 16020G25KT 22/16 A2991 RMK A01 T02150163  RH  072%=      5-min Rain = 0
KAM2 260026Z 15021G26KT 22/16 A299 RMK A01 T02150161  RH  071%=      5-min Rain = 0
KAM2 260027Z 16022KT 22/16 A299 RMK A01 T02150160  RH  071%=      5-min Rain = 0
KAM2 260028Z 16020G26KT 22/16 A299 RMK A01 T02150159  RH  071%=      5-min Rain = 0
KAM2 260029Z 16023KT 22/16 A299 RMK A01 T02150160  RH  071%=      5-min Rain = 0
KAM2 260030Z 16021G27KT 22/16 A299 RMK A01 T02150160  RH  071%=      5-min Rain = 0
KAM2 260031Z 16023KT 22/16 A299 RMK A01 T02150159  RH  071%=      5-min Rain = 0
KAM2 260032Z 16020G27KT 21/16 A299 RMK A01 T02140159  RH  071%=      5-min Rain = 0
KAM2 260033Z 16021G26KT 21/16 A299 RMK A01 T02140160  RH  071%=      5-min Rain = 0
KAM2 260034Z 16021G26KT 22/16 A2989 RMK A01 T02150159  RH  070%=      5-min Rain = 0
KAM2 260035Z 16021KT 22/16 A2989 RMK A01 T02150159  RH  071%=      5-min Rain = 0
KAM2 260036Z 16024KT 22/16 A2989 RMK A01 T02150159  RH  071%=      5-min Rain = 0
KAM2 260037Z 16022G28KT 21/16 A2989 RMK A01 T02140158  RH  070%=      5-min Rain = 0
KAM2 260038Z 16021G27KT 21/16 A2989 RMK A01 T02140157  RH  070%=      5-min Rain = 0
KAM2 260039Z 16024KT 22/16 A2989 RMK A01 T02150156  RH  069%=      5-min Rain = 0
KAM2 260040Z 16022KT 22/16 A2989 RMK A01 T02150156  RH  069%=      5-min Rain = 0
KAM2 260041Z 16024KT 21/16 A2989 RMK A01 T02140157  RH  070%=      5-min Rain = 0
KAM2 260042Z 16024G32KT 22/16 A2989 RMK A01 T02150155  RH  069%=      5-min Rain = 0
KAM2 260043Z 16022KT 21/16 A2989 RMK A01 T02140156  RH  069%=      5-min Rain = 0
KAM2 260044Z 16022G29KT 21/16 A2989 RMK A01 T02140156  RH  070%=      5-min Rain = 0
KAM2 260045Z 16026G33KT 21/16 A2989 RMK A01 T02130156  RH  070%=      5-min Rain = 0
KAM2 260046Z 16024KT 21/16 A2989 RMK A01 T02120155  RH  070%=      5-min Rain = 0
KAM2 260047Z 16025KT 21/16 A2989 RMK A01 T02120156  RH  070%=      5-min Rain = 0
KAM2 260048Z 16023KT 21/16 A2989 RMK A01 T02120156  RH  070%=      5-min Rain = 0
KAM2 260049Z 16021KT 21/16 A2989 RMK A01 T02120157  RH  071%=      5-min Rain = 0
KAM2 260050Z 16021G26KT 21/16 A2989 RMK A01 T02110158  RH  071%=      5-min Rain = 0
KAM2 260051Z 17020KT 21/16 A2989 RMK A01 T02110158  RH  072%=      5-min Rain = 0
KAM2 260052Z 17018G24KT 21/16 A2989 RMK A01 T02110158  RH  072%=      5-min Rain = 0
KAM2 260053Z 16023KT 21/16 A2989 RMK A01 T02110157  RH  071%=      5-min Rain = 0
KAM2 260054Z 17022KT 21/16 A2989 RMK A01 T02110159  RH  072%=      5-min Rain = 0
KAM2 260055Z 17021KT 21/16 A299 RMK A01 T02110159  RH  072%=      5-min Rain = 0
KAM2 260056Z 17021G26KT 21/16 A299 RMK A01 T02110160  RH  073%=      5-min Rain = 0
KAM2 260057Z 17020KT 21/16 A299 RMK A01 T02110162  RH  074%=      5-min Rain = 0
KAM2 260058Z 17020KT 21/16 A299 RMK A01 T02100161  RH  074%=      5-min Rain = 0
KAM2 260059Z 17022G27KT 21/16 A299 RMK A01 T02100160  RH  073%=      5-min Rain = 0
KAM2 260100Z 16020KT 21/16 A299 RMK A01 T02100160  RH  073%=      5-min Rain = 0
KAM2 260101Z 16020G25KT 21/16 A2989 RMK A01 T02100160  RH  073%=      5-min Rain = 0
KAM2 260102Z 16023G28KT 21/16 A2989 RMK A01 T02100159  RH  073%=      5-min Rain = 0
KAM2 260103Z 16022KT 21/16 A2989 RMK A01 T02100159  RH  073%=      5-min Rain = 0
KAM2 260104Z 17021G26KT 21/16 A2988 RMK A01 T02090159  RH  073%=      5-min Rain = 0
KAM2 260105Z 16020G26KT 21/16 A2988 RMK A01 T02090159  RH  073%=      5-min Rain = 0
KAM2 260106Z 16020G27KT 21/16 A2988 RMK A01 T02080160  RH  074%=      5-min Rain = 0
KAM2 260107Z 17020KT 21/16 A2988 RMK A01 T02080160  RH  074%=      5-min Rain = 0
KAM2 260108Z 16021KT 21/16 A2988 RMK A01 T02070160  RH  074%=      5-min Rain = 0
KAM2 260109Z 16022KT 21/16 A2988 RMK A01 T02070160  RH  074%=      5-min Rain = 0
KAM2 260110Z 16020G26KT 21/16 A2988 RMK A01 T02070159  RH  074%=      5-min Rain = 0
KAM2 260111Z 16020KT 21/16 A2988 RMK A01 T02070159  RH  074%=      5-min Rain = 0
KAM2 260112Z 16018G24KT 21/16 A2988 RMK A01 T02070160  RH  075%=      5-min Rain = 0
KAM2 260113Z 16018KT 21/16 A2988 RMK A01 T02060161  RH  075%=      5-min Rain = 0
KAM2 260114Z 16019G24KT 21/16 A2988 RMK A01 T02050160  RH  075%=      5-min Rain = 0
KAM2 260115Z 16020KT 21/16 A2988 RMK A01 T02050159  RH  075%=      5-min Rain = 0
KAM2 260116Z 16020KT 20/16 A2988 RMK A01 T02040159  RH  075%=      5-min Rain = 0
KAM2 260117Z 16016G21KT 20/16 A2989 RMK A01 T02040161  RH  076%=      5-min Rain = 0
KAM2 260118Z 16017KT 20/16 A2988 RMK A01 T02030161  RH  077%=      5-min Rain = 0
KAM2 260119Z 16017KT 20/16 A2988 RMK A01 T02030161  RH  077%=      5-min Rain = 0
KAM2 260120Z 16018KT 20/16 A2988 RMK A01 T02030161  RH  077%=      5-min Rain = 0
KAM2 260121Z 16016KT 20/16 A2988 RMK A01 T02020161  RH  077%=      5-min Rain = 0
KAM2 260122Z 17017KT 20/16 A2989 RMK A01 T02020161  RH  077%=      5-min Rain = 0
KAM2 260123Z 17017KT 20/16 A2989 RMK A01 T02010161  RH  078%=      5-min Rain = 0
KAM2 260124Z 17012KT 20/16 A2989 RMK A01 T02010162  RH  078%=      5-min Rain = 0
KAM2 260125Z 17014KT 20/16 A2989 RMK A01 T02000162  RH  079%=      5-min Rain = 0
KAM2 260126Z 16014KT 20/16 A2988 RMK A01 T01990162  RH  079%=      5-min Rain = 0
KAM2 260127Z 17014KT 20/16 A2988 RMK A01 T01990161  RH  079%=      5-min Rain = 0
KAM2 260128Z 17013G18KT 20/16 A2988 RMK A01 T01990161  RH  079%=      5-min Rain = 0
KAM2 260129Z 17012KT 20/16 A2988 RMK A01 T01980161  RH  079%=      5-min Rain = 0
KAM2 260130Z 17015KT 20/16 A2989 RMK A01 T01980161  RH  079%=      5-min Rain = 0
KAM2 260131Z 17014KT 20/16 A2989 RMK A01 T01970161  RH  079%=      5-min Rain = 0
KAM2 260132Z 17017KT 20/16 A2989 RMK A01 T01970160  RH  079%=      5-min Rain = 0
KAM2 260133Z 17015KT 20/16 A2989 RMK A01 T01970160  RH  079%=      5-min Rain = 0
KAM2 260134Z 17016KT 20/16 A2989 RMK A01 T01970160  RH  079%=      5-min Rain = 0
KAM2 260135Z 17015G20KT 20/16 A2989 RMK A01 T01970159  RH  079%=      5-min Rain = 0
KAM2 260136Z 17017KT 20/16 A2989 RMK A01 T01970159  RH  079%=      5-min Rain = 0
KAM2 260137Z 17016KT 20/16 A2989 RMK A01 T01970159  RH  079%=      5-min Rain = 0
KAM2 260138Z 17016KT 20/16 A2989 RMK A01 T01960159  RH  079%=      5-min Rain = 0
KAM2 260139Z 17016KT 20/16 A2989 RMK A01 T01960159  RH  079%=      5-min Rain = 0
KAM2 260140Z 17017KT 20/16 A2989 RMK A01 T01950159  RH  079%=      5-min Rain = 0
KAM2 260141Z 17017KT 20/16 A2989 RMK A01 T01950158  RH  079%=      5-min Rain = 0
KAM2 260142Z 17017G22KT 20/16 A2989 RMK A01 T01950158  RH  079%=      5-min Rain = 0
KAM2 260143Z 17014KT 20/16 A2989 RMK A01 T01950158  RH  079%=      5-min Rain = 0
KAM2 260144Z 17013KT 19/16 A2989 RMK A01 T01940159  RH  080%=      5-min Rain = 0
KAM2 260145Z 17015KT 19/16 A2989 RMK A01 T01930158  RH  080%=      5-min Rain = 0
KAM2 260146Z 17016KT 19/16 A2989 RMK A01 T01930157  RH  080%=      5-min Rain = 0
KAM2 260147Z 17013KT 19/16 A2989 RMK A01 T01930157  RH  080%=      5-min Rain = 0
KAM2 260148Z 18013KT 19/16 A2989 RMK A01 T01930158  RH  080%=      5-min Rain = 0
KAM2 260149Z 17013KT 19/16 A2989 RMK A01 T01930158  RH  080%=      5-min Rain = 0
KAM2 260150Z 18012KT 19/16 A2989 RMK A01 T01930158  RH  080%=      5-min Rain = 0
KAM2 260151Z 18012KT 19/16 A2989 RMK A01 T01920158  RH  081%=      5-min Rain = 0
KAM2 260152Z 18011KT 19/16 A2989 RMK A01 T01920158  RH  081%=      5-min Rain = 0
KAM2 260153Z 17012KT 19/16 A2989 RMK A01 T01910158  RH  081%=      5-min Rain = 0
KAM2 260154Z 17013KT 19/16 A2989 RMK A01 T01910157  RH  081%=      5-min Rain = 0
KAM2 260155Z 17014KT 19/16 A2989 RMK A01 T01910157  RH  080%=      5-min Rain = 0
KAM2 260156Z 17012KT 19/16 A2989 RMK A01 T01920156  RH  080%=      5-min Rain = 0
KAM2 260157Z 18013KT 19/16 A2989 RMK A01 T01920157  RH  080%=      5-min Rain = 0
KAM2 260158Z 17014KT 19/16 A2989 RMK A01 T01930157  RH  080%=      5-min Rain = 0
KAM2 260159Z 17015KT 19/16 A299 RMK A01 T01920156  RH  080%=      5-min Rain = 0
KAM2 260200Z 17014KT 19/16 A299 RMK A01 T01930156  RH  079%=      5-min Rain = 0
KAM2 260201Z 17015KT 19/16 A299 RMK A01 T01930156  RH  079%=      5-min Rain = 0
KAM2 260202Z 17017KT 19/16 A299 RMK A01 T01930156  RH  079%=      5-min Rain = 0
KAM2 260203Z 16016KT 19/16 A299 RMK A01 T01920156  RH  079%=      5-min Rain = 0
KAM2 260204Z 17014KT 19/16 A299 RMK A01 T01920156  RH  080%=      5-min Rain = 0
KAM2 260205Z 17014KT 19/16 A299 RMK A01 T01920156  RH  080%=      5-min Rain = 0
KAM2 260206Z 17016KT 19/16 A299 RMK A01 T01920156  RH  079%=      5-min Rain = 0
KAM2 260207Z 17015KT 19/16 A299 RMK A01 T01930155  RH  079%=      5-min Rain = 0
KAM2 260208Z 17015KT 19/16 A299 RMK A01 T01930155  RH  079%=      5-min Rain = 0
KAM2 260209Z 16015KT 19/16 A299 RMK A01 T01930155  RH  079%=      5-min Rain = 0
KAM2 260210Z 16014KT 19/16 A299 RMK A01 T01920156  RH  079%=      5-min Rain = 0
KAM2 260211Z 17012KT 19/16 A299 RMK A01 T01910156  RH  080%=      5-min Rain = 0
KAM2 260212Z 18013KT 19/16 A299 RMK A01 T01910156  RH  080%=      5-min Rain = 0
KAM2 260213Z 17015KT 19/16 A299 RMK A01 T01910156  RH  080%=      5-min Rain = 0
KAM2 260214Z 17016KT 19/16 A299 RMK A01 T01910156  RH  081%=      5-min Rain = 0
KAM2 260215Z 17015KT 19/16 A299 RMK A01 T01910157  RH  081%=      5-min Rain = 0
KAM2 260216Z 16013KT 19/16 A299 RMK A01 T01910157  RH  081%=      5-min Rain = 0
KAM2 260217Z 17014KT 19/16 A299 RMK A01 T01900158  RH  082%=      5-min Rain = 0
KAM2 260218Z 17014KT 19/16 A299 RMK A01 T01890158  RH  082%=      5-min Rain = 0
KAM2 260219Z 17015KT 19/16 A299 RMK A01 T01880159  RH  083%=      5-min Rain = 0
KAM2 260220Z 17015G20KT 19/16 A299 RMK A01 T01880159  RH  083%=      5-min Rain = 0
KAM2 260221Z 17014KT 19/16 A299 RMK A01 T01880159  RH  083%=      5-min Rain = 0
KAM2 260222Z 17015KT 19/16 A299 RMK A01 T01880159  RH  083%=      5-min Rain = 0
KAM2 260223Z 17014KT 19/16 A299 RMK A01 T01880159  RH  083%=      5-min Rain = 0
KAM2 260224Z 17015KT 19/16 A299 RMK A01 T01880160  RH  084%=      5-min Rain = 0
KAM2 260225Z 17016KT 19/16 A299 RMK A01 T01880160  RH  084%=      5-min Rain = 0
KAM2 260226Z 17016KT 19/16 A299 RMK A01 T01880160  RH  083%=      5-min Rain = 0
KAM2 260227Z 17014KT 19/16 A299 RMK A01 T01890160  RH  083%=      5-min Rain = 0
KAM2 260228Z 18015KT 19/16 A299 RMK A01 T01890159  RH  083%=      5-min Rain = 0
KAM2 260229Z 17014G19KT 19/16 A299 RMK A01 T01890160  RH  083%=      5-min Rain = 0
KAM2 260230Z 17016KT 19/16 A299 RMK A01 T01890160  RH  083%=      5-min Rain = 0
KAM2 260231Z 17015KT 19/16 A299 RMK A01 T01890159  RH  083%=      5-min Rain = 0
KAM2 260232Z 17014KT 19/16 A299 RMK A01 T01890160  RH  083%=      5-min Rain = 0
KAM2 260233Z 17014KT 19/16 A299 RMK A01 T01890160  RH  083%=      5-min Rain = 0
KAM2 260234Z 17014KT 19/16 A299 RMK A01 T01880160  RH  083%=      5-min Rain = 0
KAM2 260235Z 17013KT 19/16 A299 RMK A01 T01880160  RH  084%=      5-min Rain = 0
KAM2 260236Z 17015KT 19/16 A299 RMK A01 T01880160  RH  084%=      5-min Rain = 0
KAM2 260237Z 17015KT 19/16 A299 RMK A01 T01880159  RH  083%=      5-min Rain = 0
KAM2 260238Z 17014KT 19/16 A299 RMK A01 T01880159  RH  083%=      5-min Rain = 0
KAM2 260239Z 17014KT 19/16 A299 RMK A01 T01880159  RH  083%=      5-min Rain = 0
KAM2 260240Z 17015KT 19/16 A299 RMK A01 T01880159  RH  083%=      5-min Rain = 0
KAM2 260241Z 17014KT 19/16 A299 RMK A01 T01880158  RH  083%=      5-min Rain = 0
KAM2 260242Z 17013KT 19/16 A2989 RMK A01 T01880158  RH  083%=      5-min Rain = 0
KAM2 260243Z 17013KT 19/16 A2989 RMK A01 T01880157  RH  082%=      5-min Rain = 0
KAM2 260244Z 17012KT 19/16 A2989 RMK A01 T01880158  RH  082%=      5-min Rain = 0
KAM2 260245Z 17012KT 19/16 A2989 RMK A01 T01880158  RH  083%=      5-min Rain = 0
KAM2 260246Z 17013KT 19/16 A2989 RMK A01 T01880158  RH  083%=      5-min Rain = 0
KAM2 260247Z 17012KT 19/16 A2989 RMK A01 T01880158  RH  082%=      5-min Rain = 0
KAM2 260248Z 17011KT 19/16 A2989 RMK A01 T01880157  RH  082%=      5-min Rain = 0
KAM2 260249Z 17013KT 19/16 A2989 RMK A01 T01880158  RH  082%=      5-min Rain = 0
KAM2 260250Z 17012KT 19/16 A2989 RMK A01 T01890158  RH  082%=      5-min Rain = 0
KAM2 260251Z 17013G18KT 19/16 A2989 RMK A01 T01890158  RH  082%=      5-min Rain = 0
KAM2 260252Z 17014KT 19/16 A2989 RMK A01 T01890157  RH  082%=      5-min Rain = 0
KAM2 260253Z 17013KT 19/16 A2989 RMK A01 T01910158  RH  081%=      5-min Rain = 0
KAM2 260254Z 17013KT 19/16 A2989 RMK A01 T01920158  RH  081%=      5-min Rain = 0
KAM2 260255Z 17013KT 19/16 A2989 RMK A01 T01920159  RH  081%=      5-min Rain = 0
KAM2 260256Z 17012KT 19/16 A2989 RMK A01 T01930159  RH  081%=      5-min Rain = 0
KAM2 260257Z 17012G17KT 19/16 A2989 RMK A01 T01930159  RH  081%=      5-min Rain = 0
KAM2 260258Z 17014KT 19/16 A2989 RMK A01 T01940160  RH  081%=      5-min Rain = 0
KAM2 260259Z 16014KT 20/16 A2989 RMK A01 T01950160  RH  080%=      5-min Rain = 0
KAM2 260300Z 17014KT 20/16 A2989 RMK A01 T01960160  RH  080%=      5-min Rain = 0
KAM2 260301Z 17014KT 20/16 A2989 RMK A01 T01960160  RH  080%=      5-min Rain = 0
KAM2 260302Z 17014KT 20/16 A2989 RMK A01 T01960159  RH  079%=      5-min Rain = 0
KAM2 260303Z 16014KT 20/16 A2989 RMK A01 T01970160  RH  079%=      5-min Rain = 0
KAM2 260304Z 17013KT 20/16 A2989 RMK A01 T01970160  RH  079%=      5-min Rain = 0
KAM2 260305Z 17013KT 20/16 A2989 RMK A01 T01970160  RH  079%=      5-min Rain = 0
KAM2 260306Z 17012KT 20/16 A299 RMK A01 T01960160  RH  080%=      5-min Rain = 0
KAM2 260307Z 17013KT 20/16 A299 RMK A01 T01950160  RH  080%=      5-min Rain = 0
KAM2 260308Z 17013KT 19/16 A299 RMK A01 T01940160  RH  081%=      5-min Rain = 0
KAM2 260309Z 17013KT 19/16 A299 RMK A01 T01940160  RH  081%=      5-min Rain = 0
KAM2 260310Z 17013KT 19/16 A299 RMK A01 T01930160  RH  081%=      5-min Rain = 0
KAM2 260311Z 17012KT 19/16 A299 RMK A01 T01930160  RH  081%=      5-min Rain = 0
KAM2 260312Z 17013KT 19/16 A299 RMK A01 T01930160  RH  081%=      5-min Rain = 0
KAM2 260313Z 17013KT 19/16 A299 RMK A01 T01940161  RH  081%=      5-min Rain = 0
KAM2 260314Z 17013KT 20/16 A299 RMK A01 T01950161  RH  081%=      5-min Rain = 0
KAM2 260315Z 17014KT 20/16 A299 RMK A01 T01960162  RH  081%=      5-min Rain = 0
KAM2 260316Z 17014KT 20/16 A299 RMK A01 T01970163  RH  081%=      5-min Rain = 0
KAM2 260317Z 17012KT 20/16 A299 RMK A01 T01970163  RH  081%=      5-min Rain = 0
KAM2 260318Z 17014KT 20/16 A299 RMK A01 T01970164  RH  081%=      5-min Rain = 0
KAM2 260319Z 17014KT 20/16 A299 RMK A01 T01980164  RH  081%=      5-min Rain = 0
KAM2 260320Z 17015KT 20/16 A299 RMK A01 T01970164  RH  081%=      5-min Rain = 0
KAM2 260321Z 17014KT 20/16 A299 RMK A01 T01980164  RH  081%=      5-min Rain = 0
KAM2 260322Z 17013KT 20/16 A299 RMK A01 T01990164  RH  081%=      5-min Rain = 0
KAM2 260323Z 17013KT 20/17 A299 RMK A01 T01980165  RH  081%=      5-min Rain = 0
KAM2 260324Z 17014KT 20/17 A299 RMK A01 T01970165  RH  081%=      5-min Rain = 0
KAM2 260325Z 17013G18KT 20/17 A2991 RMK A01 T01980165  RH  082%=      5-min Rain = 0
KAM2 260326Z 16015KT 20/17 A299 RMK A01 T01960165  RH  082%=      5-min Rain = 0
KAM2 260327Z 17015KT 20/17 A299 RMK A01 T01970165  RH  082%=      5-min Rain = 0
KAM2 260328Z 16014KT 20/17 A299 RMK A01 T01970166  RH  082%=      5-min Rain = 0
KAM2 260329Z 17014KT 20/17 A299 RMK A01 T01960165  RH  082%=      5-min Rain = 0
KAM2 260330Z 17014KT 20/17 A2991 RMK A01 T01970166  RH  082%=      5-min Rain = 0
KAM2 260331Z 16015KT 20/17 A2991 RMK A01 T01960166  RH  083%=      5-min Rain = 0
KAM2 260332Z 17015KT 20/17 A2991 RMK A01 T01970166  RH  083%=      5-min Rain = 0
KAM2 260333Z 17013KT 20/17 A2991 RMK A01 T01960166  RH  083%=      5-min Rain = 0
KAM2 260334Z 16015KT 20/17 A2991 RMK A01 T01970167  RH  083%=      5-min Rain = 0
KAM2 260335Z 16015KT 20/17 A2991 RMK A01 T01960167  RH  083%=      5-min Rain = 0
KAM2 260336Z 17014KT 20/17 A2991 RMK A01 T01960167  RH  083%=      5-min Rain = 0
KAM2 260337Z 17014KT 20/17 A2991 RMK A01 T01960168  RH  084%=      5-min Rain = 0
KAM2 260338Z 16014KT 20/17 A2991 RMK A01 T01960168  RH  084%=      5-min Rain = 0
KAM2 260339Z 16013KT 20/17 A2991 RMK A01 T01960169  RH  084%=      5-min Rain = 0
KAM2 260340Z 17014KT 20/17 A2991 RMK A01 T01960169  RH  085%=      5-min Rain = 0
KAM2 260341Z 16013KT 20/17 A2991 RMK A01 T01960170  RH  085%=      5-min Rain = 0
KAM2 260342Z 16014KT 20/17 A2991 RMK A01 T01960170  RH  085%=      5-min Rain = 0
KAM2 260343Z 16014KT 20/17 A2991 RMK A01 T01960171  RH  085%=      5-min Rain = 0
KAM2 260344Z 16014KT 20/17 A2991 RMK A01 T01960171  RH  085%=      5-min Rain = 0
KAM2 260345Z 17013KT 20/17 A2991 RMK A01 T01970171  RH  085%=      5-min Rain = 0
KAM2 260346Z 16015KT 20/17 A2991 RMK A01 T01970171  RH  085%=      5-min Rain = 0
KAM2 260347Z 16014G20KT 20/17 A2992 RMK A01 T01970171  RH  085%=      5-min Rain = 0
KAM2 260348Z 16015G20KT 20/17 A2992 RMK A01 T01960170  RH  085%=      5-min Rain = 0
KAM2 260349Z 16015KT 20/17 A2992 RMK A01 T01970169  RH  084%=      5-min Rain = 0
KAM2 260350Z 16013KT 20/17 A2992 RMK A01 T01970170  RH  084%=      5-min Rain = 0
KAM2 260351Z 16014KT 20/17 A2992 RMK A01 T01960169  RH  084%=      5-min Rain = 0
KAM2 260352Z 16014KT 20/17 A2992 RMK A01 T01960169  RH  085%=      5-min Rain = 0
KAM2 260353Z 16013KT 20/17 A2992 RMK A01 T01950169  RH  085%=      5-min Rain = 0
KAM2 260354Z 16013KT 20/17 A2992 RMK A01 T01950169  RH  085%=      5-min Rain = 0
KAM2 260355Z 17012KT 19/17 A2992 RMK A01 T01940169  RH  086%=      5-min Rain = 0
KAM2 260356Z 16014KT 19/17 A2992 RMK A01 T01930170  RH  086%=      5-min Rain = 0
KAM2 260357Z 16013KT 19/17 A2992 RMK A01 T01930170  RH  086%=      5-min Rain = 0
KAM2 260358Z 16014KT 19/17 A2992 RMK A01 T01930171  RH  087%=      5-min Rain = 0
KAM2 260359Z 16013KT 19/17 A2992 RMK A01 T01940171  RH  087%=      5-min Rain = 0
KAM2 260400Z 17014KT 19/17 A2992 RMK A01 T01930171  RH  087%=      5-min Rain = 0
KAM2 260401Z 16014KT 19/17 A2992 RMK A01 T01940172  RH  087%=      5-min Rain = 0
KAM2 260402Z 16014KT 19/17 A2992 RMK A01 T01940172  RH  087%=      5-min Rain = 0
KAM2 260403Z 16017KT 19/17 A2992 RMK A01 T01940173  RH  087%=      5-min Rain = 0
KAM2 260404Z 17017KT 20/17 A2992 RMK A01 T01950173  RH  087%=      5-min Rain = 0
KAM2 260405Z 17013KT 20/17 A2992 RMK A01 T01960174  RH  087%=      5-min Rain = 0
KAM2 260406Z 17015KT 20/17 A2992 RMK A01 T01960174  RH  087%=      5-min Rain = 0
KAM2 260407Z 17017KT 20/17 A2992 RMK A01 T01960174  RH  087%=      5-min Rain = 0
KAM2 260408Z 17016KT 20/17 A2992 RMK A01 T01950174  RH  087%=      5-min Rain = 0
KAM2 260409Z 17017G22KT 20/17 A2992 RMK A01 T01960174  RH  087%=      5-min Rain = 0
KAM2 260410Z 17018G23KT 20/18 A2992 RMK A01 T01960175  RH  087%=      5-min Rain = 0
KAM2 260411Z 17016KT 20/18 A2992 RMK A01 T01970175  RH  087%=      5-min Rain = 0
KAM2 260412Z 17017KT 20/18 A2992 RMK A01 T01970176  RH  087%=      5-min Rain = 0
KAM2 260413Z 17018KT 20/18 A2992 RMK A01 T01970176  RH  087%=      5-min Rain = 0
KAM2 260414Z 17018KT 20/18 A2992 RMK A01 T01980176  RH  087%=      5-min Rain = 0
KAM2 260415Z 17018KT 20/18 A2992 RMK A01 T01980177  RH  087%=      5-min Rain = 0
KAM2 260416Z 17018KT 20/18 A2992 RMK A01 T01990177  RH  087%=      5-min Rain = 0
KAM2 260417Z 17014KT 20/18 A2992 RMK A01 T01990177  RH  087%=      5-min Rain = 0
KAM2 260418Z 17017KT 20/18 A2992 RMK A01 T01990178  RH  087%=      5-min Rain = 0
KAM2 260419Z 17015KT 20/18 A2993 RMK A01 T01990178  RH  087%=      5-min Rain = 0
KAM2 260420Z 17017KT 20/18 A2993 RMK A01 T01980177  RH  088%=      5-min Rain = 0
KAM2 260421Z 17016G21KT 20/18 A2993 RMK A01 T01980178  RH  088%=      5-min Rain = 0
KAM2 260422Z 17016KT 20/18 A2993 RMK A01 T01990178  RH  088%=      5-min Rain = 0
KAM2 260423Z 17016KT 20/18 A2993 RMK A01 T01990178  RH  088%=      5-min Rain = 0
KAM2 260424Z 17015KT 20/18 A2993 RMK A01 T01990178  RH  088%=      5-min Rain = 0
KAM2 260425Z 17016KT 20/18 A2993 RMK A01 T01990178  RH  088%=      5-min Rain = 0
KAM2 260426Z 17015KT 20/18 A2993 RMK A01 T01990178  RH  088%=      5-min Rain = 0
KAM2 260427Z 17015KT 20/18 A2993 RMK A01 T02000179  RH  088%=      5-min Rain = 0
KAM2 260428Z 17017KT 20/18 A2993 RMK A01 T02000179  RH  088%=      5-min Rain = 0
KAM2 260429Z 17017KT 20/18 A2993 RMK A01 T02010179  RH  087%=      5-min Rain = 0
KAM2 260430Z 17016KT 20/18 A2993 RMK A01 T02020179  RH  087%=      5-min Rain = 0
KAM2 260431Z 17017G22KT 20/18 A2993 RMK A01 T02020180  RH  087%=      5-min Rain = 0
KAM2 260432Z 17019G25KT 20/18 A2993 RMK A01 T02030180  RH  086%=      5-min Rain = 0
KAM2 260433Z 17018KT 20/18 A2993 RMK A01 T02040180  RH  086%=      5-min Rain = 0
KAM2 260434Z 17017KT 21/18 A2993 RMK A01 T02050180  RH  086%=      5-min Rain = 0
KAM2 260435Z 17016KT 21/18 A2993 RMK A01 T02050180  RH  086%=      5-min Rain = 0
KAM2 260436Z 17018KT 21/18 A2993 RMK A01 T02050180  RH  086%=      5-min Rain = 0
KAM2 260437Z 17019KT 21/18 A2993 RMK A01 T02050180  RH  086%=      5-min Rain = 0
KAM2 260438Z 17019KT 21/18 A2993 RMK A01 T02050180  RH  086%=      5-min Rain = 0
KAM2 260439Z 17017KT 21/18 A2993 RMK A01 T02060180  RH  085%=      5-min Rain = 0
KAM2 260440Z 17019KT 21/18 A2993 RMK A01 T02060181  RH  086%=      5-min Rain = 0
KAM2 260441Z 17017KT 21/18 A2993 RMK A01 T02050180  RH  086%=      5-min Rain = 0
KAM2 260442Z 17016KT 21/18 A2993 RMK A01 T02050180  RH  086%=      5-min Rain = 0
KAM2 260443Z 17017KT 21/18 A2993 RMK A01 T02050181  RH  086%=      5-min Rain = 0
KAM2 260444Z 16018G23KT 21/18 A2993 RMK A01 T02050181  RH  086%=      5-min Rain = 0
KAM2 260445Z 17018KT 20/18 A2993 RMK A01 T02040180  RH  086%=      5-min Rain = 0
KAM2 260446Z 17017KT 20/18 A2993 RMK A01 T02040180  RH  086%=      5-min Rain = 0
KAM2 260447Z 17015KT 20/18 A2993 RMK A01 T02040181  RH  086%=      5-min Rain = 0
KAM2 260448Z 17017KT 20/18 A2993 RMK A01 T02030181  RH  087%=      5-min Rain = 0
KAM2 260449Z 17014KT 20/18 A2993 RMK A01 T02030180  RH  087%=      5-min Rain = 0
KAM2 260450Z 17017KT 20/18 A2993 RMK A01 T02030180  RH  087%=      5-min Rain = 0
KAM2 260451Z 16016KT 20/18 A2993 RMK A01 T02030180  RH  087%=      5-min Rain = 0
KAM2 260452Z 17017KT 20/18 A2993 RMK A01 T02030180  RH  087%=      5-min Rain = 0
KAM2 260453Z 16018KT 20/18 A2993 RMK A01 T02020180  RH  087%=      5-min Rain = 0
KAM2 260454Z 17017KT 20/18 A2993 RMK A01 T02020180  RH  087%=      5-min Rain = 0
KAM2 260455Z 17015KT 20/18 A2993 RMK A01 T02020181  RH  087%=      5-min Rain = 0
KAM2 260456Z 17016KT 20/18 A2993 RMK A01 T02020180  RH  088%=      5-min Rain = 0
KAM2 260457Z 17016KT 20/18 A2993 RMK A01 T02010180  RH  088%=      5-min Rain = 0
KAM2 260458Z 17017KT 20/18 A2993 RMK A01 T02010180  RH  088%=      5-min Rain = 0
KAM2 260459Z 17015KT 20/18 A2993 RMK A01 T02010180  RH  088%=      5-min Rain = 0

Page generated in 0.1217 seconds.